<?xml version="1.0" encoding="UTF-8" standalone="no" ?>
<gpx xmlns="http://www.topografix.com/GPX/1/1" xmlns:xsi="http://www.w3.org/2001/XMLSchema-instance" xsi:schemaLocation="http://www.topografix.com/GPX/1/1 http://www.topografix.com/GPX/1/1/gpx.xsd" version="1.1" creator="VisuGPX - https://www.visugpx.com">
  <metadata>
    <name>Crêtes (La Schlucht) - Lac Vert - Chalet Erichson</name>
    <desc><![CDATA[Top !
Faire le détour par la FA Schnupferen]]></desc>
  </metadata>
  <trk>
    <name><![CDATA[Crêtes (La Schlucht) - Lac Vert - Chalet Erichson_1]]></name>
    <trkseg>
      <trkpt lat="48.06408" lon="7.0229">
        <ele>1142.7</ele>
      </trkpt>
      <trkpt lat="48.06433" lon="7.02286">
        <ele>1142.7</ele>
      </trkpt>
      <trkpt lat="48.06441" lon="7.02286">
        <ele>1143.1</ele>
      </trkpt>
      <trkpt lat="48.06445" lon="7.02288">
        <ele>1143.6</ele>
      </trkpt>
      <trkpt lat="48.06454" lon="7.0229">
        <ele>1144.2</ele>
      </trkpt>
      <trkpt lat="48.06465" lon="7.0229">
        <ele>1144.9</ele>
      </trkpt>
      <trkpt lat="48.06506" lon="7.02301">
        <ele>1149.3</ele>
      </trkpt>
      <trkpt lat="48.06538" lon="7.02324">
        <ele>1163.9</ele>
        <time>2021-03-08T11:10:50.000Z</time>
      </trkpt>
      <trkpt lat="48.06538" lon="7.02324">
        <ele>1163.9</ele>
        <time>2021-03-08T11:10:50.000Z</time>
      </trkpt>
      <trkpt lat="48.06547" lon="7.02329">
        <ele>1158.98</ele>
        <time>2021-03-08T11:11:25.000Z</time>
      </trkpt>
      <trkpt lat="48.06556" lon="7.02334">
        <ele>1157.91</ele>
        <time>2021-03-08T11:11:35.000Z</time>
      </trkpt>
      <trkpt lat="48.06565" lon="7.02337">
        <ele>1156.9</ele>
        <time>2021-03-08T11:11:49.000Z</time>
      </trkpt>
      <trkpt lat="48.06574" lon="7.02339">
        <ele>1155.71</ele>
        <time>2021-03-08T11:11:58.000Z</time>
      </trkpt>
      <trkpt lat="48.06584" lon="7.02342">
        <ele>1153.15</ele>
        <time>2021-03-08T11:12:09.000Z</time>
      </trkpt>
      <trkpt lat="48.06593" lon="7.02343">
        <ele>1151.92</ele>
        <time>2021-03-08T11:12:19.000Z</time>
      </trkpt>
      <trkpt lat="48.06602" lon="7.02344">
        <ele>1153.4</ele>
        <time>2021-03-08T11:12:29.000Z</time>
      </trkpt>
      <trkpt lat="48.06611" lon="7.02349">
        <ele>1153.9</ele>
        <time>2021-03-08T11:12:36.000Z</time>
      </trkpt>
      <trkpt lat="48.06621" lon="7.0235">
        <ele>1156.81</ele>
        <time>2021-03-08T11:12:45.000Z</time>
      </trkpt>
      <trkpt lat="48.06631" lon="7.02354">
        <ele>1160.84</ele>
        <time>2021-03-08T11:12:56.000Z</time>
      </trkpt>
      <trkpt lat="48.06641" lon="7.02356">
        <ele>1162.7</ele>
        <time>2021-03-08T11:13:05.000Z</time>
      </trkpt>
      <trkpt lat="48.0665" lon="7.02357">
        <ele>1164.65</ele>
        <time>2021-03-08T11:13:13.000Z</time>
      </trkpt>
      <trkpt lat="48.0666" lon="7.02357">
        <ele>1164.66</ele>
        <time>2021-03-08T11:13:21.000Z</time>
      </trkpt>
      <trkpt lat="48.0667" lon="7.02354">
        <ele>1166.9</ele>
        <time>2021-03-08T11:13:39.000Z</time>
      </trkpt>
      <trkpt lat="48.06679" lon="7.02354">
        <ele>1165.9</ele>
        <time>2021-03-08T11:13:49.000Z</time>
      </trkpt>
      <trkpt lat="48.06689" lon="7.02354">
        <ele>1166.91</ele>
        <time>2021-03-08T11:14:01.000Z</time>
      </trkpt>
      <trkpt lat="48.06698" lon="7.02355">
        <ele>1165.9</ele>
        <time>2021-03-08T11:14:10.000Z</time>
      </trkpt>
      <trkpt lat="48.06707" lon="7.02359">
        <ele>1168.9</ele>
        <time>2021-03-08T11:14:20.000Z</time>
      </trkpt>
      <trkpt lat="48.06716" lon="7.02362">
        <ele>1172.65</ele>
        <time>2021-03-08T11:14:32.000Z</time>
      </trkpt>
      <trkpt lat="48.06725" lon="7.02364">
        <ele>1172.9</ele>
        <time>2021-03-08T11:14:41.000Z</time>
      </trkpt>
      <trkpt lat="48.06734" lon="7.02365">
        <ele>1172.71</ele>
        <time>2021-03-08T11:14:52.000Z</time>
      </trkpt>
      <trkpt lat="48.06744" lon="7.02366">
        <ele>1175.9</ele>
        <time>2021-03-08T11:15:03.000Z</time>
      </trkpt>
      <trkpt lat="48.06753" lon="7.02366">
        <ele>1174.65</ele>
        <time>2021-03-08T11:15:16.000Z</time>
      </trkpt>
      <trkpt lat="48.06762" lon="7.02363">
        <ele>1172.15</ele>
        <time>2021-03-08T11:15:25.000Z</time>
      </trkpt>
      <trkpt lat="48.06773" lon="7.02361">
        <ele>1170.84</ele>
        <time>2021-03-08T11:15:33.000Z</time>
      </trkpt>
      <trkpt lat="48.06783" lon="7.02361">
        <ele>1172.89</ele>
        <time>2021-03-08T11:15:41.000Z</time>
      </trkpt>
      <trkpt lat="48.06792" lon="7.02359">
        <ele>1174.65</ele>
        <time>2021-03-08T11:15:50.000Z</time>
      </trkpt>
      <trkpt lat="48.06801" lon="7.02358">
        <ele>1175.66</ele>
        <time>2021-03-08T11:16:00.000Z</time>
      </trkpt>
      <trkpt lat="48.0681" lon="7.02358">
        <ele>1175.65</ele>
        <time>2021-03-08T11:16:09.000Z</time>
      </trkpt>
      <trkpt lat="48.0682" lon="7.02357">
        <ele>1174.17</ele>
        <time>2021-03-08T11:16:18.000Z</time>
      </trkpt>
      <trkpt lat="48.0683" lon="7.0236">
        <ele>1173.9</ele>
        <time>2021-03-08T11:16:27.000Z</time>
      </trkpt>
      <trkpt lat="48.06839" lon="7.0236">
        <ele>1173.9</ele>
        <time>2021-03-08T11:16:36.000Z</time>
      </trkpt>
      <trkpt lat="48.06849" lon="7.0236">
        <ele>1174.96</ele>
        <time>2021-03-08T11:16:48.000Z</time>
      </trkpt>
      <trkpt lat="48.06858" lon="7.02358">
        <ele>1174.9</ele>
        <time>2021-03-08T11:16:57.000Z</time>
      </trkpt>
      <trkpt lat="48.06868" lon="7.02357">
        <ele>1173.96</ele>
        <time>2021-03-08T11:17:06.000Z</time>
      </trkpt>
      <trkpt lat="48.06878" lon="7.02355">
        <ele>1174.66</ele>
        <time>2021-03-08T11:17:13.000Z</time>
      </trkpt>
      <trkpt lat="48.06888" lon="7.02353">
        <ele>1171.18</ele>
        <time>2021-03-08T11:17:22.000Z</time>
      </trkpt>
      <trkpt lat="48.06898" lon="7.0235">
        <ele>1167.97</ele>
        <time>2021-03-08T11:17:31.000Z</time>
      </trkpt>
      <trkpt lat="48.06908" lon="7.02348">
        <ele>1168.9</ele>
        <time>2021-03-08T11:17:40.000Z</time>
      </trkpt>
      <trkpt lat="48.06918" lon="7.02342">
        <ele>1170.58</ele>
        <time>2021-03-08T11:17:47.000Z</time>
      </trkpt>
      <trkpt lat="48.06926" lon="7.02336">
        <ele>1170.66</ele>
        <time>2021-03-08T11:17:55.000Z</time>
      </trkpt>
      <trkpt lat="48.06935" lon="7.02331">
        <ele>1170.9</ele>
        <time>2021-03-08T11:18:04.000Z</time>
      </trkpt>
      <trkpt lat="48.06944" lon="7.02327">
        <ele>1170.86</ele>
        <time>2021-03-08T11:18:12.000Z</time>
      </trkpt>
      <trkpt lat="48.06954" lon="7.02322">
        <ele>1172.65</ele>
        <time>2021-03-08T11:18:21.000Z</time>
      </trkpt>
      <trkpt lat="48.06965" lon="7.02319">
        <ele>1176.65</ele>
        <time>2021-03-08T11:18:35.000Z</time>
      </trkpt>
      <trkpt lat="48.06974" lon="7.02314">
        <ele>1178.84</ele>
        <time>2021-03-08T11:18:42.000Z</time>
      </trkpt>
      <trkpt lat="48.06983" lon="7.02309">
        <ele>1178.9</ele>
        <time>2021-03-08T11:18:53.000Z</time>
      </trkpt>
      <trkpt lat="48.06993" lon="7.02301">
        <ele>1176.91</ele>
        <time>2021-03-08T11:19:05.000Z</time>
      </trkpt>
      <trkpt lat="48.07002" lon="7.02298">
        <ele>1175.91</ele>
        <time>2021-03-08T11:19:17.000Z</time>
      </trkpt>
      <trkpt lat="48.07012" lon="7.02296">
        <ele>1177.15</ele>
        <time>2021-03-08T11:19:36.000Z</time>
      </trkpt>
      <trkpt lat="48.07021" lon="7.02294">
        <ele>1178.59</ele>
        <time>2021-03-08T11:19:48.000Z</time>
      </trkpt>
      <trkpt lat="48.07031" lon="7.02292">
        <ele>1179.84</ele>
        <time>2021-03-08T11:19:55.000Z</time>
      </trkpt>
      <trkpt lat="48.07041" lon="7.02292">
        <ele>1180.97</ele>
        <time>2021-03-08T11:20:06.000Z</time>
      </trkpt>
      <trkpt lat="48.07051" lon="7.02288">
        <ele>1179.16</ele>
        <time>2021-03-08T11:20:17.000Z</time>
      </trkpt>
      <trkpt lat="48.0706" lon="7.02285">
        <ele>1176.92</ele>
        <time>2021-03-08T11:20:24.000Z</time>
      </trkpt>
      <trkpt lat="48.07069" lon="7.0228">
        <ele>1178.84</ele>
        <time>2021-03-08T11:20:32.000Z</time>
      </trkpt>
      <trkpt lat="48.07078" lon="7.0228">
        <ele>1179.66</ele>
        <time>2021-03-08T11:20:43.000Z</time>
      </trkpt>
      <trkpt lat="48.07088" lon="7.0228">
        <ele>1190.91</ele>
        <time>2021-03-08T11:22:58.000Z</time>
      </trkpt>
      <trkpt lat="48.07097" lon="7.0228">
        <ele>1190.84</ele>
        <time>2021-03-08T11:23:06.000Z</time>
      </trkpt>
      <trkpt lat="48.07106" lon="7.0228">
        <ele>1190.15</ele>
        <time>2021-03-08T11:23:16.000Z</time>
      </trkpt>
      <trkpt lat="48.07118" lon="7.02279">
        <ele>1186.91</ele>
        <time>2021-03-08T11:23:26.000Z</time>
      </trkpt>
      <trkpt lat="48.0713" lon="7.02276">
        <ele>1184.41</ele>
        <time>2021-03-08T11:23:35.000Z</time>
      </trkpt>
      <trkpt lat="48.0714" lon="7.02278">
        <ele>1184.9</ele>
        <time>2021-03-08T11:23:43.000Z</time>
      </trkpt>
      <trkpt lat="48.0715" lon="7.02282">
        <ele>1185.41</ele>
        <time>2021-03-08T11:23:54.000Z</time>
      </trkpt>
      <trkpt lat="48.07159" lon="7.02283">
        <ele>1184.91</ele>
        <time>2021-03-08T11:24:04.000Z</time>
      </trkpt>
      <trkpt lat="48.07167" lon="7.0229">
        <ele>1182.9</ele>
        <time>2021-03-08T11:24:13.000Z</time>
      </trkpt>
      <trkpt lat="48.07175" lon="7.02298">
        <ele>1180.66</ele>
        <time>2021-03-08T11:24:23.000Z</time>
      </trkpt>
      <trkpt lat="48.07183" lon="7.02304">
        <ele>1180.91</ele>
        <time>2021-03-08T11:24:31.000Z</time>
      </trkpt>
      <trkpt lat="48.07195" lon="7.02307">
        <ele>1181.66</ele>
        <time>2021-03-08T11:24:43.000Z</time>
      </trkpt>
      <trkpt lat="48.07204" lon="7.02313">
        <ele>1181.95</ele>
        <time>2021-03-08T11:24:50.000Z</time>
      </trkpt>
      <trkpt lat="48.07213" lon="7.02318">
        <ele>1181.91</ele>
        <time>2021-03-08T11:24:59.000Z</time>
      </trkpt>
      <trkpt lat="48.0722" lon="7.02326">
        <ele>1180.91</ele>
        <time>2021-03-08T11:25:08.000Z</time>
      </trkpt>
      <trkpt lat="48.07229" lon="7.02333">
        <ele>1183.9</ele>
        <time>2021-03-08T11:25:20.000Z</time>
      </trkpt>
      <trkpt lat="48.07237" lon="7.02342">
        <ele>1183.9</ele>
        <time>2021-03-08T11:25:30.000Z</time>
      </trkpt>
      <trkpt lat="48.07246" lon="7.02348">
        <ele>1182.22</ele>
        <time>2021-03-08T11:25:39.000Z</time>
      </trkpt>
      <trkpt lat="48.07254" lon="7.02357">
        <ele>1181.11</ele>
        <time>2021-03-08T11:25:48.000Z</time>
      </trkpt>
      <trkpt lat="48.07261" lon="7.02367">
        <ele>1177.67</ele>
        <time>2021-03-08T11:25:57.000Z</time>
      </trkpt>
      <trkpt lat="48.07269" lon="7.02376">
        <ele>1176.91</ele>
        <time>2021-03-08T11:26:07.000Z</time>
      </trkpt>
      <trkpt lat="48.07275" lon="7.02387">
        <ele>1179.66</ele>
        <time>2021-03-08T11:26:18.000Z</time>
      </trkpt>
      <trkpt lat="48.07283" lon="7.02398">
        <ele>1178.91</ele>
        <time>2021-03-08T11:26:30.000Z</time>
      </trkpt>
      <trkpt lat="48.0729" lon="7.02408">
        <ele>1177.91</ele>
        <time>2021-03-08T11:26:40.000Z</time>
      </trkpt>
      <trkpt lat="48.07295" lon="7.0242">
        <ele>1179.9</ele>
        <time>2021-03-08T11:26:50.000Z</time>
      </trkpt>
      <trkpt lat="48.07302" lon="7.02429">
        <ele>1181.91</ele>
        <time>2021-03-08T11:26:59.000Z</time>
      </trkpt>
      <trkpt lat="48.0731" lon="7.02438">
        <ele>1181.91</ele>
        <time>2021-03-08T11:27:09.000Z</time>
      </trkpt>
      <trkpt lat="48.07318" lon="7.02447">
        <ele>1182.91</ele>
        <time>2021-03-08T11:27:18.000Z</time>
      </trkpt>
      <trkpt lat="48.07324" lon="7.02457">
        <ele>1183.91</ele>
        <time>2021-03-08T11:27:27.000Z</time>
      </trkpt>
      <trkpt lat="48.07331" lon="7.02469">
        <ele>1183.66</ele>
        <time>2021-03-08T11:27:39.000Z</time>
      </trkpt>
      <trkpt lat="48.07338" lon="7.02479">
        <ele>1183.91</ele>
        <time>2021-03-08T11:27:47.000Z</time>
      </trkpt>
      <trkpt lat="48.07344" lon="7.02489">
        <ele>1184.92</ele>
        <time>2021-03-08T11:27:56.000Z</time>
      </trkpt>
      <trkpt lat="48.07352" lon="7.02499">
        <ele>1185.91</ele>
        <time>2021-03-08T11:28:06.000Z</time>
      </trkpt>
      <trkpt lat="48.07359" lon="7.02508">
        <ele>1186.84</ele>
        <time>2021-03-08T11:28:14.000Z</time>
      </trkpt>
      <trkpt lat="48.07364" lon="7.0252">
        <ele>1186.91</ele>
        <time>2021-03-08T11:28:24.000Z</time>
      </trkpt>
      <trkpt lat="48.0737" lon="7.0253">
        <ele>1187.91</ele>
        <time>2021-03-08T11:28:33.000Z</time>
      </trkpt>
      <trkpt lat="48.07376" lon="7.02541">
        <ele>1190.66</ele>
        <time>2021-03-08T11:28:41.000Z</time>
      </trkpt>
      <trkpt lat="48.0738" lon="7.02554">
        <ele>1193.65</ele>
        <time>2021-03-08T11:28:52.000Z</time>
      </trkpt>
      <trkpt lat="48.07386" lon="7.02565">
        <ele>1195.66</ele>
        <time>2021-03-08T11:29:01.000Z</time>
      </trkpt>
      <trkpt lat="48.07392" lon="7.02577">
        <ele>1196.94</ele>
        <time>2021-03-08T11:29:11.000Z</time>
      </trkpt>
      <trkpt lat="48.07398" lon="7.02589">
        <ele>1198.66</ele>
        <time>2021-03-08T11:29:21.000Z</time>
      </trkpt>
      <trkpt lat="48.07403" lon="7.02601">
        <ele>1197.91</ele>
        <time>2021-03-08T11:29:30.000Z</time>
      </trkpt>
      <trkpt lat="48.07409" lon="7.02614">
        <ele>1198.66</ele>
        <time>2021-03-08T11:29:41.000Z</time>
      </trkpt>
      <trkpt lat="48.07415" lon="7.02629">
        <ele>1201.66</ele>
        <time>2021-03-08T11:29:53.000Z</time>
      </trkpt>
      <trkpt lat="48.0742" lon="7.0264">
        <ele>1203.86</ele>
        <time>2021-03-08T11:30:02.000Z</time>
      </trkpt>
      <trkpt lat="48.07424" lon="7.02653">
        <ele>1206.66</ele>
        <time>2021-03-08T11:30:12.000Z</time>
      </trkpt>
      <trkpt lat="48.07429" lon="7.02664">
        <ele>1204.17</ele>
        <time>2021-03-08T11:30:22.000Z</time>
      </trkpt>
      <trkpt lat="48.07433" lon="7.02678">
        <ele>1206.66</ele>
        <time>2021-03-08T11:30:33.000Z</time>
      </trkpt>
      <trkpt lat="48.07437" lon="7.02693">
        <ele>1207.91</ele>
        <time>2021-03-08T11:30:44.000Z</time>
      </trkpt>
      <trkpt lat="48.0744" lon="7.0271">
        <ele>1206.41</ele>
        <time>2021-03-08T11:30:56.000Z</time>
      </trkpt>
      <trkpt lat="48.07442" lon="7.02723">
        <ele>1206.9</ele>
        <time>2021-03-08T11:31:05.000Z</time>
      </trkpt>
      <trkpt lat="48.07445" lon="7.02736">
        <ele>1208.84</ele>
        <time>2021-03-08T11:31:14.000Z</time>
      </trkpt>
      <trkpt lat="48.07449" lon="7.0275">
        <ele>1210.9</ele>
        <time>2021-03-08T11:31:26.000Z</time>
      </trkpt>
      <trkpt lat="48.0745" lon="7.02763">
        <ele>1211.89</ele>
        <time>2021-03-08T11:31:34.000Z</time>
      </trkpt>
      <trkpt lat="48.07453" lon="7.02777">
        <ele>1213.91</ele>
        <time>2021-03-08T11:31:47.000Z</time>
      </trkpt>
      <trkpt lat="48.07454" lon="7.02792">
        <ele>1213.66</ele>
        <time>2021-03-08T11:31:58.000Z</time>
      </trkpt>
      <trkpt lat="48.07453" lon="7.02809">
        <ele>1214.66</ele>
        <time>2021-03-08T11:32:10.000Z</time>
      </trkpt>
      <trkpt lat="48.07454" lon="7.02825">
        <ele>1216.66</ele>
        <time>2021-03-08T11:32:21.000Z</time>
      </trkpt>
      <trkpt lat="48.07454" lon="7.02839">
        <ele>1216.89</ele>
        <time>2021-03-08T11:32:30.000Z</time>
      </trkpt>
      <trkpt lat="48.07454" lon="7.02854">
        <ele>1216.97</ele>
        <time>2021-03-08T11:32:39.000Z</time>
      </trkpt>
      <trkpt lat="48.07453" lon="7.0287">
        <ele>1217.91</ele>
        <time>2021-03-08T11:32:50.000Z</time>
      </trkpt>
      <trkpt lat="48.07453" lon="7.02884">
        <ele>1217.91</ele>
        <time>2021-03-08T11:33:01.000Z</time>
      </trkpt>
      <trkpt lat="48.07454" lon="7.02899">
        <ele>1219.9</ele>
        <time>2021-03-08T11:33:10.000Z</time>
      </trkpt>
      <trkpt lat="48.07452" lon="7.02915">
        <ele>1221.66</ele>
        <time>2021-03-08T11:33:20.000Z</time>
      </trkpt>
      <trkpt lat="48.07451" lon="7.0293">
        <ele>1223.09</ele>
        <time>2021-03-08T11:33:29.000Z</time>
      </trkpt>
      <trkpt lat="48.07451" lon="7.02943">
        <ele>1223.92</ele>
        <time>2021-03-08T11:33:39.000Z</time>
      </trkpt>
      <trkpt lat="48.07448" lon="7.02958">
        <ele>1221.91</ele>
        <time>2021-03-08T11:33:51.000Z</time>
      </trkpt>
      <trkpt lat="48.07448" lon="7.02972">
        <ele>1222.65</ele>
        <time>2021-03-08T11:33:59.000Z</time>
      </trkpt>
      <trkpt lat="48.0745" lon="7.02987">
        <ele>1222.84</ele>
        <time>2021-03-08T11:34:10.000Z</time>
      </trkpt>
      <trkpt lat="48.0745" lon="7.03001">
        <ele>1226.59</ele>
        <time>2021-03-08T11:34:20.000Z</time>
      </trkpt>
      <trkpt lat="48.0745" lon="7.03015">
        <ele>1224.97</ele>
        <time>2021-03-08T11:34:29.000Z</time>
      </trkpt>
      <trkpt lat="48.0745" lon="7.03028">
        <ele>1225.91</ele>
        <time>2021-03-08T11:34:38.000Z</time>
      </trkpt>
      <trkpt lat="48.07452" lon="7.03043">
        <ele>1228.08</ele>
        <time>2021-03-08T11:34:56.000Z</time>
      </trkpt>
      <trkpt lat="48.07455" lon="7.03057">
        <ele>1227.16</ele>
        <time>2021-03-08T11:35:07.000Z</time>
      </trkpt>
      <trkpt lat="48.07457" lon="7.03071">
        <ele>1228.89</ele>
        <time>2021-03-08T11:35:18.000Z</time>
      </trkpt>
      <trkpt lat="48.07455" lon="7.03084">
        <ele>1229.86</ele>
        <time>2021-03-08T11:35:30.000Z</time>
      </trkpt>
      <trkpt lat="48.07445" lon="7.03092">
        <ele>1228.41</ele>
        <time>2021-03-08T11:35:44.000Z</time>
      </trkpt>
      <trkpt lat="48.07436" lon="7.03098">
        <ele>1228.89</ele>
        <time>2021-03-08T11:35:59.000Z</time>
      </trkpt>
      <trkpt lat="48.07432" lon="7.03109">
        <ele>1230.89</ele>
        <time>2021-03-08T11:36:10.000Z</time>
      </trkpt>
      <trkpt lat="48.07428" lon="7.03124">
        <ele>1230.16</ele>
        <time>2021-03-08T11:36:22.000Z</time>
      </trkpt>
      <trkpt lat="48.07425" lon="7.03137">
        <ele>1228.22</ele>
        <time>2021-03-08T11:36:33.000Z</time>
      </trkpt>
      <trkpt lat="48.07422" lon="7.03151">
        <ele>1226.91</ele>
        <time>2021-03-08T11:36:45.000Z</time>
      </trkpt>
      <trkpt lat="48.07417" lon="7.03164">
        <ele>1226.11</ele>
        <time>2021-03-08T11:36:54.000Z</time>
      </trkpt>
      <trkpt lat="48.07416" lon="7.03177">
        <ele>1227.89</ele>
        <time>2021-03-08T11:37:01.000Z</time>
      </trkpt>
      <trkpt lat="48.07415" lon="7.03192">
        <ele>1229.66</ele>
        <time>2021-03-08T11:37:08.000Z</time>
      </trkpt>
      <trkpt lat="48.07417" lon="7.03205">
        <ele>1230.72</ele>
        <time>2021-03-08T11:37:17.000Z</time>
      </trkpt>
      <trkpt lat="48.07422" lon="7.03218">
        <ele>1231.09</ele>
        <time>2021-03-08T11:37:26.000Z</time>
      </trkpt>
      <trkpt lat="48.07426" lon="7.0323">
        <ele>1231.85</ele>
        <time>2021-03-08T11:37:35.000Z</time>
      </trkpt>
      <trkpt lat="48.07433" lon="7.03242">
        <ele>1232.91</ele>
        <time>2021-03-08T11:37:47.000Z</time>
      </trkpt>
      <trkpt lat="48.0744" lon="7.03254">
        <ele>1234.66</ele>
        <time>2021-03-08T11:37:58.000Z</time>
      </trkpt>
      <trkpt lat="48.07446" lon="7.03265">
        <ele>1235.9</ele>
        <time>2021-03-08T11:38:10.000Z</time>
      </trkpt>
      <trkpt lat="48.07452" lon="7.03276">
        <ele>1239.63</ele>
        <time>2021-03-08T11:38:22.000Z</time>
      </trkpt>
      <trkpt lat="48.07458" lon="7.03286">
        <ele>1240.84</ele>
        <time>2021-03-08T11:38:33.000Z</time>
      </trkpt>
      <trkpt lat="48.07466" lon="7.03296">
        <ele>1244.14</ele>
        <time>2021-03-08T11:38:46.000Z</time>
      </trkpt>
      <trkpt lat="48.0747" lon="7.03308">
        <ele>1242.91</ele>
        <time>2021-03-08T11:38:56.000Z</time>
      </trkpt>
      <trkpt lat="48.07476" lon="7.0332">
        <ele>1242.97</ele>
        <time>2021-03-08T11:39:10.000Z</time>
      </trkpt>
      <trkpt lat="48.07482" lon="7.03332">
        <ele>1241.22</ele>
        <time>2021-03-08T11:39:21.000Z</time>
      </trkpt>
      <trkpt lat="48.07489" lon="7.0334">
        <ele>1241.65</ele>
        <time>2021-03-08T11:39:32.000Z</time>
      </trkpt>
      <trkpt lat="48.07495" lon="7.03351">
        <ele>1243.91</ele>
        <time>2021-03-08T11:39:45.000Z</time>
      </trkpt>
      <trkpt lat="48.07502" lon="7.03361">
        <ele>1247.65</ele>
        <time>2021-03-08T11:39:58.000Z</time>
      </trkpt>
      <trkpt lat="48.07507" lon="7.03372">
        <ele>1248.15</ele>
        <time>2021-03-08T11:40:07.000Z</time>
      </trkpt>
      <trkpt lat="48.07512" lon="7.03386">
        <ele>1249.91</ele>
        <time>2021-03-08T11:40:19.000Z</time>
      </trkpt>
      <trkpt lat="48.07519" lon="7.03397">
        <ele>1250.91</ele>
        <time>2021-03-08T11:40:31.000Z</time>
      </trkpt>
      <trkpt lat="48.07523" lon="7.0341">
        <ele>1253.66</ele>
        <time>2021-03-08T11:40:43.000Z</time>
      </trkpt>
      <trkpt lat="48.07529" lon="7.03422">
        <ele>1254.92</ele>
        <time>2021-03-08T11:40:55.000Z</time>
      </trkpt>
      <trkpt lat="48.07535" lon="7.03432">
        <ele>1254.72</ele>
        <time>2021-03-08T11:41:05.000Z</time>
      </trkpt>
      <trkpt lat="48.07543" lon="7.03442">
        <ele>1255.66</ele>
        <time>2021-03-08T11:41:16.000Z</time>
      </trkpt>
      <trkpt lat="48.07548" lon="7.03454">
        <ele>1257.91</ele>
        <time>2021-03-08T11:41:28.000Z</time>
      </trkpt>
      <trkpt lat="48.07555" lon="7.03465">
        <ele>1260.66</ele>
        <time>2021-03-08T11:41:38.000Z</time>
      </trkpt>
      <trkpt lat="48.07561" lon="7.03477">
        <ele>1262.84</ele>
        <time>2021-03-08T11:41:48.000Z</time>
      </trkpt>
      <trkpt lat="48.07565" lon="7.03488">
        <ele>1263.1</ele>
        <time>2021-03-08T11:41:57.000Z</time>
      </trkpt>
      <trkpt lat="48.07571" lon="7.03499">
        <ele>1264.14</ele>
        <time>2021-03-08T11:42:07.000Z</time>
      </trkpt>
      <trkpt lat="48.0758" lon="7.03505">
        <ele>1262.91</ele>
        <time>2021-03-08T11:42:17.000Z</time>
      </trkpt>
      <trkpt lat="48.07587" lon="7.03513">
        <ele>1262.91</ele>
        <time>2021-03-08T11:42:26.000Z</time>
      </trkpt>
      <trkpt lat="48.07594" lon="7.03523">
        <ele>1264.84</ele>
        <time>2021-03-08T11:42:35.000Z</time>
      </trkpt>
      <trkpt lat="48.07601" lon="7.03533">
        <ele>1263.91</ele>
        <time>2021-03-08T11:42:46.000Z</time>
      </trkpt>
      <trkpt lat="48.07608" lon="7.03543">
        <ele>1264.85</ele>
        <time>2021-03-08T11:42:54.000Z</time>
      </trkpt>
      <trkpt lat="48.07616" lon="7.03553">
        <ele>1263.85</ele>
        <time>2021-03-08T11:43:03.000Z</time>
      </trkpt>
      <trkpt lat="48.07623" lon="7.03561">
        <ele>1264.85</ele>
        <time>2021-03-08T11:43:10.000Z</time>
      </trkpt>
      <trkpt lat="48.0763" lon="7.03573">
        <ele>1263.91</ele>
        <time>2021-03-08T11:43:23.000Z</time>
      </trkpt>
      <trkpt lat="48.07632" lon="7.03587">
        <ele>1264.91</ele>
        <time>2021-03-08T11:43:34.000Z</time>
      </trkpt>
      <trkpt lat="48.07635" lon="7.036">
        <ele>1265.91</ele>
        <time>2021-03-08T11:43:42.000Z</time>
      </trkpt>
      <trkpt lat="48.07637" lon="7.03613">
        <ele>1267.9</ele>
        <time>2021-03-08T11:43:52.000Z</time>
      </trkpt>
      <trkpt lat="48.07637" lon="7.03627">
        <ele>1268.66</ele>
        <time>2021-03-08T11:44:06.000Z</time>
      </trkpt>
      <trkpt lat="48.07637" lon="7.03641">
        <ele>1270.91</ele>
        <time>2021-03-08T11:44:22.000Z</time>
      </trkpt>
      <trkpt lat="48.07646" lon="7.03637">
        <ele>1266.16</ele>
        <time>2021-03-08T11:46:23.000Z</time>
      </trkpt>
      <trkpt lat="48.07655" lon="7.03636">
        <ele>1265.91</ele>
        <time>2021-03-08T11:46:50.000Z</time>
      </trkpt>
      <trkpt lat="48.07663" lon="7.03644">
        <ele>1268.9</ele>
        <time>2021-03-08T11:47:02.000Z</time>
      </trkpt>
      <trkpt lat="48.07671" lon="7.03652">
        <ele>1267.16</ele>
        <time>2021-03-08T11:47:15.000Z</time>
      </trkpt>
      <trkpt lat="48.07662" lon="7.03656">
        <ele>1265.16</ele>
        <time>2021-03-08T11:48:27.000Z</time>
      </trkpt>
      <trkpt lat="48.0767" lon="7.03663">
        <ele>1264.16</ele>
        <time>2021-03-08T11:50:41.000Z</time>
      </trkpt>
      <trkpt lat="48.07679" lon="7.0366">
        <ele>1267.91</ele>
        <time>2021-03-08T11:53:26.000Z</time>
      </trkpt>
      <trkpt lat="48.07688" lon="7.03662">
        <ele>1267.95</ele>
        <time>2021-03-08T11:53:37.000Z</time>
      </trkpt>
      <trkpt lat="48.07697" lon="7.03662">
        <ele>1268.66</ele>
        <time>2021-03-08T11:53:49.000Z</time>
      </trkpt>
      <trkpt lat="48.07706" lon="7.03666">
        <ele>1270.71</ele>
        <time>2021-03-08T11:53:58.000Z</time>
      </trkpt>
      <trkpt lat="48.07715" lon="7.03668">
        <ele>1270.95</ele>
        <time>2021-03-08T11:54:07.000Z</time>
      </trkpt>
      <trkpt lat="48.07724" lon="7.03669">
        <ele>1270.91</ele>
        <time>2021-03-08T11:54:16.000Z</time>
      </trkpt>
      <trkpt lat="48.07734" lon="7.03669">
        <ele>1270.91</ele>
        <time>2021-03-08T11:54:28.000Z</time>
      </trkpt>
      <trkpt lat="48.07742" lon="7.03675">
        <ele>1268.91</ele>
        <time>2021-03-08T11:54:41.000Z</time>
      </trkpt>
      <trkpt lat="48.07751" lon="7.03679">
        <ele>1267.97</ele>
        <time>2021-03-08T11:54:55.000Z</time>
      </trkpt>
      <trkpt lat="48.0776" lon="7.03674">
        <ele>1264.91</ele>
        <time>2021-03-08T11:56:37.000Z</time>
      </trkpt>
      <trkpt lat="48.07768" lon="7.0368">
        <ele>1264.16</ele>
        <time>2021-03-08T11:56:47.000Z</time>
      </trkpt>
      <trkpt lat="48.07777" lon="7.03686">
        <ele>1261.91</ele>
        <time>2021-03-08T11:56:58.000Z</time>
      </trkpt>
      <trkpt lat="48.07785" lon="7.03694">
        <ele>1262.91</ele>
        <time>2021-03-08T11:57:06.000Z</time>
      </trkpt>
      <trkpt lat="48.07793" lon="7.03704">
        <ele>1261.91</ele>
        <time>2021-03-08T11:57:15.000Z</time>
      </trkpt>
      <trkpt lat="48.078" lon="7.03715">
        <ele>1262.86</ele>
        <time>2021-03-08T11:57:24.000Z</time>
      </trkpt>
      <trkpt lat="48.07803" lon="7.03728">
        <ele>1260.97</ele>
        <time>2021-03-08T11:57:35.000Z</time>
      </trkpt>
      <trkpt lat="48.07811" lon="7.03736">
        <ele>1260.16</ele>
        <time>2021-03-08T11:57:43.000Z</time>
      </trkpt>
      <trkpt lat="48.07819" lon="7.03744">
        <ele>1259.91</ele>
        <time>2021-03-08T11:57:52.000Z</time>
      </trkpt>
      <trkpt lat="48.07824" lon="7.03755">
        <ele>1258.9</ele>
        <time>2021-03-08T11:58:01.000Z</time>
      </trkpt>
      <trkpt lat="48.07829" lon="7.03767">
        <ele>1258.91</ele>
        <time>2021-03-08T11:58:10.000Z</time>
      </trkpt>
      <trkpt lat="48.07833" lon="7.03779">
        <ele>1260.85</ele>
        <time>2021-03-08T11:58:18.000Z</time>
      </trkpt>
      <trkpt lat="48.07835" lon="7.03792">
        <ele>1261.91</ele>
        <time>2021-03-08T11:58:27.000Z</time>
      </trkpt>
      <trkpt lat="48.07839" lon="7.03805">
        <ele>1262.91</ele>
        <time>2021-03-08T11:58:36.000Z</time>
      </trkpt>
      <trkpt lat="48.07842" lon="7.03819">
        <ele>1262.91</ele>
        <time>2021-03-08T11:58:46.000Z</time>
      </trkpt>
      <trkpt lat="48.07849" lon="7.0383">
        <ele>1260.91</ele>
        <time>2021-03-08T11:59:15.000Z</time>
      </trkpt>
      <trkpt lat="48.07852" lon="7.03843">
        <ele>1260.91</ele>
        <time>2021-03-08T11:59:23.000Z</time>
      </trkpt>
      <trkpt lat="48.07857" lon="7.03857">
        <ele>1260.91</ele>
        <time>2021-03-08T11:59:31.000Z</time>
      </trkpt>
      <trkpt lat="48.07861" lon="7.0387">
        <ele>1261.91</ele>
        <time>2021-03-08T11:59:39.000Z</time>
      </trkpt>
      <trkpt lat="48.07868" lon="7.03881">
        <ele>1260.97</ele>
        <time>2021-03-08T11:59:48.000Z</time>
      </trkpt>
      <trkpt lat="48.07874" lon="7.03893">
        <ele>1260.91</ele>
        <time>2021-03-08T11:59:56.000Z</time>
      </trkpt>
      <trkpt lat="48.07879" lon="7.03904">
        <ele>1258.97</ele>
        <time>2021-03-08T12:00:04.000Z</time>
      </trkpt>
      <trkpt lat="48.07885" lon="7.03915">
        <ele>1257.93</ele>
        <time>2021-03-08T12:00:13.000Z</time>
      </trkpt>
      <trkpt lat="48.0789" lon="7.03928">
        <ele>1256.91</ele>
        <time>2021-03-08T12:00:29.000Z</time>
      </trkpt>
      <trkpt lat="48.07895" lon="7.0394">
        <ele>1254.16</ele>
        <time>2021-03-08T12:00:43.000Z</time>
      </trkpt>
      <trkpt lat="48.07898" lon="7.03953">
        <ele>1252.91</ele>
        <time>2021-03-08T12:01:08.000Z</time>
      </trkpt>
      <trkpt lat="48.07901" lon="7.03966">
        <ele>1251.17</ele>
        <time>2021-03-08T12:01:18.000Z</time>
      </trkpt>
      <trkpt lat="48.07904" lon="7.03982">
        <ele>1251.16</ele>
        <time>2021-03-08T12:01:28.000Z</time>
      </trkpt>
      <trkpt lat="48.07906" lon="7.03997">
        <ele>1246.23</ele>
        <time>2021-03-08T12:01:39.000Z</time>
      </trkpt>
      <trkpt lat="48.07905" lon="7.04011">
        <ele>1244.91</ele>
        <time>2021-03-08T12:01:50.000Z</time>
      </trkpt>
      <trkpt lat="48.07905" lon="7.04025">
        <ele>1244.96</ele>
        <time>2021-03-08T12:02:03.000Z</time>
      </trkpt>
      <trkpt lat="48.07907" lon="7.04039">
        <ele>1245.14</ele>
        <time>2021-03-08T12:02:13.000Z</time>
      </trkpt>
      <trkpt lat="48.0791" lon="7.04053">
        <ele>1245.91</ele>
        <time>2021-03-08T12:02:23.000Z</time>
      </trkpt>
      <trkpt lat="48.0791" lon="7.04067">
        <ele>1245.66</ele>
        <time>2021-03-08T12:02:32.000Z</time>
      </trkpt>
      <trkpt lat="48.07912" lon="7.04081">
        <ele>1245.89</ele>
        <time>2021-03-08T12:02:41.000Z</time>
      </trkpt>
      <trkpt lat="48.07912" lon="7.04095">
        <ele>1246.85</ele>
        <time>2021-03-08T12:02:50.000Z</time>
      </trkpt>
      <trkpt lat="48.07916" lon="7.04108">
        <ele>1244.91</ele>
        <time>2021-03-08T12:03:01.000Z</time>
      </trkpt>
      <trkpt lat="48.07916" lon="7.04122">
        <ele>1245.85</ele>
        <time>2021-03-08T12:03:08.000Z</time>
      </trkpt>
      <trkpt lat="48.07918" lon="7.04137">
        <ele>1246.91</ele>
        <time>2021-03-08T12:03:16.000Z</time>
      </trkpt>
      <trkpt lat="48.07914" lon="7.04151">
        <ele>1249.91</ele>
        <time>2021-03-08T12:03:25.000Z</time>
      </trkpt>
      <trkpt lat="48.0791" lon="7.04164">
        <ele>1250.91</ele>
        <time>2021-03-08T12:03:35.000Z</time>
      </trkpt>
      <trkpt lat="48.07907" lon="7.04178">
        <ele>1250.91</ele>
        <time>2021-03-08T12:03:48.000Z</time>
      </trkpt>
      <trkpt lat="48.07905" lon="7.04191">
        <ele>1252.85</ele>
        <time>2021-03-08T12:03:57.000Z</time>
      </trkpt>
      <trkpt lat="48.07901" lon="7.04205">
        <ele>1253.89</ele>
        <time>2021-03-08T12:04:05.000Z</time>
      </trkpt>
      <trkpt lat="48.07898" lon="7.04218">
        <ele>1253.91</ele>
        <time>2021-03-08T12:04:14.000Z</time>
      </trkpt>
      <trkpt lat="48.07893" lon="7.04231">
        <ele>1255.66</ele>
        <time>2021-03-08T12:04:25.000Z</time>
      </trkpt>
      <trkpt lat="48.0789" lon="7.04244">
        <ele>1257.66</ele>
        <time>2021-03-08T12:04:36.000Z</time>
      </trkpt>
      <trkpt lat="48.07886" lon="7.04257">
        <ele>1259.66</ele>
        <time>2021-03-08T12:04:59.000Z</time>
      </trkpt>
      <trkpt lat="48.07881" lon="7.04269">
        <ele>1260.91</ele>
        <time>2021-03-08T12:05:08.000Z</time>
      </trkpt>
      <trkpt lat="48.07876" lon="7.04281">
        <ele>1260.91</ele>
        <time>2021-03-08T12:05:18.000Z</time>
      </trkpt>
      <trkpt lat="48.07873" lon="7.04294">
        <ele>1260.91</ele>
        <time>2021-03-08T12:05:30.000Z</time>
      </trkpt>
      <trkpt lat="48.07872" lon="7.04308">
        <ele>1259.91</ele>
        <time>2021-03-08T12:05:42.000Z</time>
      </trkpt>
      <trkpt lat="48.07869" lon="7.04322">
        <ele>1257.16</ele>
        <time>2021-03-08T12:05:53.000Z</time>
      </trkpt>
      <trkpt lat="48.07865" lon="7.04334">
        <ele>1256.91</ele>
        <time>2021-03-08T12:06:07.000Z</time>
      </trkpt>
      <trkpt lat="48.07863" lon="7.04351">
        <ele>1253.91</ele>
        <time>2021-03-08T12:06:27.000Z</time>
      </trkpt>
      <trkpt lat="48.07858" lon="7.04363">
        <ele>1251.16</ele>
        <time>2021-03-08T12:06:41.000Z</time>
      </trkpt>
      <trkpt lat="48.07853" lon="7.04376">
        <ele>1246.99</ele>
        <time>2021-03-08T12:07:34.000Z</time>
      </trkpt>
      <trkpt lat="48.07854" lon="7.04392">
        <ele>1244.91</ele>
        <time>2021-03-08T12:07:48.000Z</time>
      </trkpt>
      <trkpt lat="48.07851" lon="7.04405">
        <ele>1242.91</ele>
        <time>2021-03-08T12:08:02.000Z</time>
      </trkpt>
      <trkpt lat="48.0785" lon="7.04418">
        <ele>1240.92</ele>
        <time>2021-03-08T12:08:17.000Z</time>
      </trkpt>
      <trkpt lat="48.07844" lon="7.0443">
        <ele>1240.66</ele>
        <time>2021-03-08T12:08:46.000Z</time>
      </trkpt>
      <trkpt lat="48.0784" lon="7.04444">
        <ele>1238.91</ele>
        <time>2021-03-08T12:09:05.000Z</time>
      </trkpt>
      <trkpt lat="48.07835" lon="7.04457">
        <ele>1232.99</ele>
        <time>2021-03-08T12:09:22.000Z</time>
      </trkpt>
      <trkpt lat="48.07831" lon="7.04469">
        <ele>1229.91</ele>
        <time>2021-03-08T12:09:35.000Z</time>
      </trkpt>
      <trkpt lat="48.07826" lon="7.04482">
        <ele>1228.91</ele>
        <time>2021-03-08T12:09:50.000Z</time>
      </trkpt>
      <trkpt lat="48.07821" lon="7.04496">
        <ele>1225.41</ele>
        <time>2021-03-08T12:10:10.000Z</time>
      </trkpt>
      <trkpt lat="48.07814" lon="7.04507">
        <ele>1222.91</ele>
        <time>2021-03-08T12:10:22.000Z</time>
      </trkpt>
      <trkpt lat="48.07811" lon="7.04519">
        <ele>1217.16</ele>
        <time>2021-03-08T12:10:37.000Z</time>
      </trkpt>
      <trkpt lat="48.07809" lon="7.04534">
        <ele>1210.91</ele>
        <time>2021-03-08T12:10:53.000Z</time>
      </trkpt>
      <trkpt lat="48.07809" lon="7.04548">
        <ele>1207.91</ele>
        <time>2021-03-08T12:11:09.000Z</time>
      </trkpt>
      <trkpt lat="48.07806" lon="7.04561">
        <ele>1206.85</ele>
        <time>2021-03-08T12:11:29.000Z</time>
      </trkpt>
      <trkpt lat="48.07806" lon="7.04575">
        <ele>1204.91</ele>
        <time>2021-03-08T12:11:41.000Z</time>
      </trkpt>
      <trkpt lat="48.07805" lon="7.04592">
        <ele>1203.16</ele>
        <time>2021-03-08T12:11:52.000Z</time>
      </trkpt>
      <trkpt lat="48.07806" lon="7.04606">
        <ele>1200.97</ele>
        <time>2021-03-08T12:12:05.000Z</time>
      </trkpt>
      <trkpt lat="48.07806" lon="7.04622">
        <ele>1200.91</ele>
        <time>2021-03-08T12:12:16.000Z</time>
      </trkpt>
      <trkpt lat="48.07806" lon="7.04636">
        <ele>1199.91</ele>
        <time>2021-03-08T12:12:25.000Z</time>
      </trkpt>
      <trkpt lat="48.07806" lon="7.0465">
        <ele>1197.97</ele>
        <time>2021-03-08T12:12:35.000Z</time>
      </trkpt>
      <trkpt lat="48.07804" lon="7.04664">
        <ele>1197.9</ele>
        <time>2021-03-08T12:12:42.000Z</time>
      </trkpt>
      <trkpt lat="48.07801" lon="7.04678">
        <ele>1196.16</ele>
        <time>2021-03-08T12:12:51.000Z</time>
      </trkpt>
      <trkpt lat="48.07801" lon="7.04692">
        <ele>1194.16</ele>
        <time>2021-03-08T12:13:01.000Z</time>
      </trkpt>
      <trkpt lat="48.07798" lon="7.04708">
        <ele>1194.91</ele>
        <time>2021-03-08T12:13:11.000Z</time>
      </trkpt>
      <trkpt lat="48.07796" lon="7.04723">
        <ele>1192.97</ele>
        <time>2021-03-08T12:13:21.000Z</time>
      </trkpt>
      <trkpt lat="48.07794" lon="7.04736">
        <ele>1190.16</ele>
        <time>2021-03-08T12:13:29.000Z</time>
      </trkpt>
      <trkpt lat="48.07791" lon="7.0475">
        <ele>1190.91</ele>
        <time>2021-03-08T12:13:36.000Z</time>
      </trkpt>
      <trkpt lat="48.07789" lon="7.04764">
        <ele>1190.16</ele>
        <time>2021-03-08T12:13:44.000Z</time>
      </trkpt>
      <trkpt lat="48.07786" lon="7.04778">
        <ele>1189.16</ele>
        <time>2021-03-08T12:13:53.000Z</time>
      </trkpt>
      <trkpt lat="48.07785" lon="7.04791">
        <ele>1188.89</ele>
        <time>2021-03-08T12:14:05.000Z</time>
      </trkpt>
      <trkpt lat="48.07783" lon="7.04805">
        <ele>1189.91</ele>
        <time>2021-03-08T12:14:16.000Z</time>
      </trkpt>
      <trkpt lat="48.07781" lon="7.04819">
        <ele>1188.91</ele>
        <time>2021-03-08T12:14:25.000Z</time>
      </trkpt>
      <trkpt lat="48.07781" lon="7.04833">
        <ele>1188.91</ele>
        <time>2021-03-08T12:14:34.000Z</time>
      </trkpt>
      <trkpt lat="48.0778" lon="7.04849">
        <ele>1187.16</ele>
        <time>2021-03-08T12:14:47.000Z</time>
      </trkpt>
      <trkpt lat="48.0778" lon="7.04863">
        <ele>1187.16</ele>
        <time>2021-03-08T12:14:56.000Z</time>
      </trkpt>
      <trkpt lat="48.07781" lon="7.04881">
        <ele>1185.91</ele>
        <time>2021-03-08T12:15:08.000Z</time>
      </trkpt>
      <trkpt lat="48.07784" lon="7.04895">
        <ele>1183.16</ele>
        <time>2021-03-08T12:15:20.000Z</time>
      </trkpt>
      <trkpt lat="48.07787" lon="7.04909">
        <ele>1181.16</ele>
        <time>2021-03-08T12:15:30.000Z</time>
      </trkpt>
      <trkpt lat="48.07787" lon="7.04922">
        <ele>1182.09</ele>
        <time>2021-03-08T12:15:37.000Z</time>
      </trkpt>
      <trkpt lat="48.07788" lon="7.04937">
        <ele>1182.91</ele>
        <time>2021-03-08T12:15:44.000Z</time>
      </trkpt>
      <trkpt lat="48.07791" lon="7.0495">
        <ele>1183.91</ele>
        <time>2021-03-08T12:15:52.000Z</time>
      </trkpt>
      <trkpt lat="48.07792" lon="7.04964">
        <ele>1184.91</ele>
        <time>2021-03-08T12:16:10.000Z</time>
      </trkpt>
      <trkpt lat="48.07791" lon="7.04978">
        <ele>1183.92</ele>
        <time>2021-03-08T12:16:24.000Z</time>
      </trkpt>
      <trkpt lat="48.07797" lon="7.04991">
        <ele>1184.91</ele>
        <time>2021-03-08T12:16:35.000Z</time>
      </trkpt>
      <trkpt lat="48.07801" lon="7.05004">
        <ele>1184.91</ele>
        <time>2021-03-08T12:16:43.000Z</time>
      </trkpt>
      <trkpt lat="48.07805" lon="7.05016">
        <ele>1185.66</ele>
        <time>2021-03-08T12:16:51.000Z</time>
      </trkpt>
      <trkpt lat="48.0781" lon="7.05028">
        <ele>1186.91</ele>
        <time>2021-03-08T12:17:00.000Z</time>
      </trkpt>
      <trkpt lat="48.07816" lon="7.0504">
        <ele>1184.97</ele>
        <time>2021-03-08T12:17:11.000Z</time>
      </trkpt>
      <trkpt lat="48.07821" lon="7.05052">
        <ele>1182.92</ele>
        <time>2021-03-08T12:17:20.000Z</time>
      </trkpt>
      <trkpt lat="48.07828" lon="7.05063">
        <ele>1183.91</ele>
        <time>2021-03-08T12:17:29.000Z</time>
      </trkpt>
      <trkpt lat="48.07834" lon="7.05072">
        <ele>1182.17</ele>
        <time>2021-03-08T12:17:38.000Z</time>
      </trkpt>
      <trkpt lat="48.07842" lon="7.0508">
        <ele>1178.91</ele>
        <time>2021-03-08T12:17:48.000Z</time>
      </trkpt>
      <trkpt lat="48.07846" lon="7.05093">
        <ele>1177.91</ele>
        <time>2021-03-08T12:17:56.000Z</time>
      </trkpt>
      <trkpt lat="48.0785" lon="7.05105">
        <ele>1176.16</ele>
        <time>2021-03-08T12:18:05.000Z</time>
      </trkpt>
      <trkpt lat="48.07849" lon="7.05119">
        <ele>1174.97</ele>
        <time>2021-03-08T12:18:15.000Z</time>
      </trkpt>
      <trkpt lat="48.07846" lon="7.05132">
        <ele>1171.9</ele>
        <time>2021-03-08T12:18:45.000Z</time>
      </trkpt>
      <trkpt lat="48.07846" lon="7.05146">
        <ele>1169.91</ele>
        <time>2021-03-08T12:19:04.000Z</time>
      </trkpt>
      <trkpt lat="48.07845" lon="7.05161">
        <ele>1170.9</ele>
        <time>2021-03-08T12:19:18.000Z</time>
      </trkpt>
      <trkpt lat="48.07845" lon="7.05175">
        <ele>1170.66</ele>
        <time>2021-03-08T12:19:28.000Z</time>
      </trkpt>
      <trkpt lat="48.07844" lon="7.05189">
        <ele>1170.66</ele>
        <time>2021-03-08T12:19:38.000Z</time>
      </trkpt>
      <trkpt lat="48.07841" lon="7.05203">
        <ele>1167.97</ele>
        <time>2021-03-08T12:19:49.000Z</time>
      </trkpt>
      <trkpt lat="48.0784" lon="7.05218">
        <ele>1164.16</ele>
        <time>2021-03-08T12:20:08.000Z</time>
      </trkpt>
      <trkpt lat="48.07839" lon="7.05232">
        <ele>1164.91</ele>
        <time>2021-03-08T12:20:30.000Z</time>
      </trkpt>
      <trkpt lat="48.07839" lon="7.05247">
        <ele>1162.41</ele>
        <time>2021-03-08T12:20:45.000Z</time>
      </trkpt>
      <trkpt lat="48.0784" lon="7.05261">
        <ele>1160.91</ele>
        <time>2021-03-08T12:20:56.000Z</time>
      </trkpt>
      <trkpt lat="48.07839" lon="7.05275">
        <ele>1159.84</ele>
        <time>2021-03-08T12:21:23.000Z</time>
      </trkpt>
      <trkpt lat="48.07838" lon="7.05289">
        <ele>1159.91</ele>
        <time>2021-03-08T12:21:32.000Z</time>
      </trkpt>
      <trkpt lat="48.07838" lon="7.05302">
        <ele>1159.91</ele>
        <time>2021-03-08T12:21:41.000Z</time>
      </trkpt>
      <trkpt lat="48.07838" lon="7.05316">
        <ele>1159.91</ele>
        <time>2021-03-08T12:21:50.000Z</time>
      </trkpt>
      <trkpt lat="48.07838" lon="7.0533">
        <ele>1160.09</ele>
        <time>2021-03-08T12:21:59.000Z</time>
      </trkpt>
      <trkpt lat="48.07832" lon="7.0534">
        <ele>1153.91</ele>
        <time>2021-03-08T12:22:55.000Z</time>
      </trkpt>
      <trkpt lat="48.07842" lon="7.05341">
        <ele>1158.78</ele>
        <time>2021-03-08T12:24:25.000Z</time>
      </trkpt>
      <trkpt lat="48.07842" lon="7.05355">
        <ele>1154.91</ele>
        <time>2021-03-08T12:25:22.000Z</time>
      </trkpt>
      <trkpt lat="48.07843" lon="7.05369">
        <ele>1151.91</ele>
        <time>2021-03-08T12:26:16.000Z</time>
      </trkpt>
      <trkpt lat="48.07848" lon="7.05381">
        <ele>1151.91</ele>
        <time>2021-03-08T12:26:26.000Z</time>
      </trkpt>
      <trkpt lat="48.07851" lon="7.05395">
        <ele>1149.91</ele>
        <time>2021-03-08T12:26:36.000Z</time>
      </trkpt>
      <trkpt lat="48.07855" lon="7.05408">
        <ele>1148.91</ele>
        <time>2021-03-08T12:26:46.000Z</time>
      </trkpt>
      <trkpt lat="48.07859" lon="7.05421">
        <ele>1147.91</ele>
        <time>2021-03-08T12:26:56.000Z</time>
      </trkpt>
      <trkpt lat="48.07862" lon="7.05436">
        <ele>1146.91</ele>
        <time>2021-03-08T12:27:06.000Z</time>
      </trkpt>
      <trkpt lat="48.07866" lon="7.05449">
        <ele>1146.91</ele>
        <time>2021-03-08T12:27:16.000Z</time>
      </trkpt>
      <trkpt lat="48.0787" lon="7.05464">
        <ele>1145.16</ele>
        <time>2021-03-08T12:27:27.000Z</time>
      </trkpt>
      <trkpt lat="48.07875" lon="7.05477">
        <ele>1143.91</ele>
        <time>2021-03-08T12:27:36.000Z</time>
      </trkpt>
      <trkpt lat="48.07879" lon="7.05491">
        <ele>1141.92</ele>
        <time>2021-03-08T12:27:45.000Z</time>
      </trkpt>
      <trkpt lat="48.07882" lon="7.05504">
        <ele>1141.1</ele>
        <time>2021-03-08T12:27:53.000Z</time>
      </trkpt>
      <trkpt lat="48.07886" lon="7.05518">
        <ele>1138.97</ele>
        <time>2021-03-08T12:28:03.000Z</time>
      </trkpt>
      <trkpt lat="48.0789" lon="7.05534">
        <ele>1137.91</ele>
        <time>2021-03-08T12:28:15.000Z</time>
      </trkpt>
      <trkpt lat="48.07894" lon="7.05546">
        <ele>1137.66</ele>
        <time>2021-03-08T12:28:22.000Z</time>
      </trkpt>
      <trkpt lat="48.07896" lon="7.0556">
        <ele>1136.91</ele>
        <time>2021-03-08T12:28:30.000Z</time>
      </trkpt>
      <trkpt lat="48.07899" lon="7.05573">
        <ele>1137.72</ele>
        <time>2021-03-08T12:28:39.000Z</time>
      </trkpt>
      <trkpt lat="48.07902" lon="7.05588">
        <ele>1137.91</ele>
        <time>2021-03-08T12:28:48.000Z</time>
      </trkpt>
      <trkpt lat="48.07908" lon="7.05602">
        <ele>1135.16</ele>
        <time>2021-03-08T12:29:00.000Z</time>
      </trkpt>
      <trkpt lat="48.07911" lon="7.05615">
        <ele>1133.91</ele>
        <time>2021-03-08T12:29:08.000Z</time>
      </trkpt>
      <trkpt lat="48.07915" lon="7.05627">
        <ele>1132.16</ele>
        <time>2021-03-08T12:29:16.000Z</time>
      </trkpt>
      <trkpt lat="48.07918" lon="7.05641">
        <ele>1131.92</ele>
        <time>2021-03-08T12:29:25.000Z</time>
      </trkpt>
      <trkpt lat="48.07922" lon="7.05654">
        <ele>1130.91</ele>
        <time>2021-03-08T12:29:35.000Z</time>
      </trkpt>
      <trkpt lat="48.07926" lon="7.05668">
        <ele>1129.16</ele>
        <time>2021-03-08T12:29:44.000Z</time>
      </trkpt>
      <trkpt lat="48.07928" lon="7.05683">
        <ele>1128.91</ele>
        <time>2021-03-08T12:29:54.000Z</time>
      </trkpt>
      <trkpt lat="48.07929" lon="7.05698">
        <ele>1128.16</ele>
        <time>2021-03-08T12:30:03.000Z</time>
      </trkpt>
      <trkpt lat="48.07932" lon="7.05712">
        <ele>1127.91</ele>
        <time>2021-03-08T12:30:12.000Z</time>
      </trkpt>
      <trkpt lat="48.07934" lon="7.05725">
        <ele>1126.16</ele>
        <time>2021-03-08T12:30:20.000Z</time>
      </trkpt>
      <trkpt lat="48.07938" lon="7.0574">
        <ele>1126.15</ele>
        <time>2021-03-08T12:30:32.000Z</time>
      </trkpt>
      <trkpt lat="48.07941" lon="7.05753">
        <ele>1122.16</ele>
        <time>2021-03-08T12:30:42.000Z</time>
      </trkpt>
      <trkpt lat="48.07947" lon="7.05766">
        <ele>1120.91</ele>
        <time>2021-03-08T12:30:56.000Z</time>
      </trkpt>
      <trkpt lat="48.07953" lon="7.05777">
        <ele>1118.92</ele>
        <time>2021-03-08T12:31:05.000Z</time>
      </trkpt>
      <trkpt lat="48.07959" lon="7.05787">
        <ele>1118.91</ele>
        <time>2021-03-08T12:31:13.000Z</time>
      </trkpt>
      <trkpt lat="48.07966" lon="7.05797">
        <ele>1117.92</ele>
        <time>2021-03-08T12:31:22.000Z</time>
      </trkpt>
      <trkpt lat="48.07971" lon="7.05808">
        <ele>1117.91</ele>
        <time>2021-03-08T12:31:30.000Z</time>
      </trkpt>
      <trkpt lat="48.07978" lon="7.05816">
        <ele>1117.86</ele>
        <time>2021-03-08T12:31:40.000Z</time>
      </trkpt>
      <trkpt lat="48.07987" lon="7.05823">
        <ele>1118.85</ele>
        <time>2021-03-08T12:31:49.000Z</time>
      </trkpt>
      <trkpt lat="48.07995" lon="7.05828">
        <ele>1119.89</ele>
        <time>2021-03-08T12:32:00.000Z</time>
      </trkpt>
      <trkpt lat="48.08004" lon="7.05823">
        <ele>1120.91</ele>
        <time>2021-03-08T12:32:22.000Z</time>
      </trkpt>
      <trkpt lat="48.08013" lon="7.05823">
        <ele>1120.9</ele>
        <time>2021-03-08T12:32:37.000Z</time>
      </trkpt>
      <trkpt lat="48.08022" lon="7.05827">
        <ele>1121.67</ele>
        <time>2021-03-08T12:32:47.000Z</time>
      </trkpt>
      <trkpt lat="48.08031" lon="7.05831">
        <ele>1120.11</ele>
        <time>2021-03-08T12:32:57.000Z</time>
      </trkpt>
      <trkpt lat="48.0804" lon="7.05826">
        <ele>1119.91</ele>
        <time>2021-03-08T12:33:09.000Z</time>
      </trkpt>
      <trkpt lat="48.08049" lon="7.05821">
        <ele>1116.97</ele>
        <time>2021-03-08T12:34:29.000Z</time>
      </trkpt>
      <trkpt lat="48.08057" lon="7.05813">
        <ele>1111.91</ele>
        <time>2021-03-08T12:35:05.000Z</time>
      </trkpt>
      <trkpt lat="48.08066" lon="7.05815">
        <ele>1111.66</ele>
        <time>2021-03-08T12:35:23.000Z</time>
      </trkpt>
      <trkpt lat="48.08074" lon="7.05808">
        <ele>1106.16</ele>
        <time>2021-03-08T12:35:42.000Z</time>
      </trkpt>
      <trkpt lat="48.0808" lon="7.05798">
        <ele>1099.83</ele>
        <time>2021-03-08T12:36:12.000Z</time>
      </trkpt>
      <trkpt lat="48.08086" lon="7.05788">
        <ele>1099.85</ele>
        <time>2021-03-08T12:36:28.000Z</time>
      </trkpt>
      <trkpt lat="48.08096" lon="7.05782">
        <ele>1097.91</ele>
        <time>2021-03-08T12:36:42.000Z</time>
      </trkpt>
      <trkpt lat="48.08105" lon="7.05784">
        <ele>1098.15</ele>
        <time>2021-03-08T12:36:53.000Z</time>
      </trkpt>
      <trkpt lat="48.08113" lon="7.05792">
        <ele>1097.91</ele>
        <time>2021-03-08T12:37:05.000Z</time>
      </trkpt>
      <trkpt lat="48.08122" lon="7.05789">
        <ele>1095.66</ele>
        <time>2021-03-08T12:37:17.000Z</time>
      </trkpt>
      <trkpt lat="48.08129" lon="7.05798">
        <ele>1094.91</ele>
        <time>2021-03-08T12:37:28.000Z</time>
      </trkpt>
      <trkpt lat="48.08136" lon="7.05807">
        <ele>1093.91</ele>
        <time>2021-03-08T12:37:38.000Z</time>
      </trkpt>
      <trkpt lat="48.08142" lon="7.05817">
        <ele>1088.91</ele>
        <time>2021-03-08T12:37:53.000Z</time>
      </trkpt>
      <trkpt lat="48.0815" lon="7.05825">
        <ele>1088.91</ele>
        <time>2021-03-08T12:38:02.000Z</time>
      </trkpt>
      <trkpt lat="48.08159" lon="7.05831">
        <ele>1082.98</ele>
        <time>2021-03-08T12:48:39.000Z</time>
      </trkpt>
      <trkpt lat="48.08167" lon="7.05837">
        <ele>1082.85</ele>
        <time>2021-03-08T12:48:49.000Z</time>
      </trkpt>
      <trkpt lat="48.08177" lon="7.0584">
        <ele>1082.67</ele>
        <time>2021-03-08T12:48:58.000Z</time>
      </trkpt>
      <trkpt lat="48.08186" lon="7.05842">
        <ele>1082.91</ele>
        <time>2021-03-08T12:49:06.000Z</time>
      </trkpt>
      <trkpt lat="48.08196" lon="7.05841">
        <ele>1080.91</ele>
        <time>2021-03-08T12:49:19.000Z</time>
      </trkpt>
      <trkpt lat="48.08205" lon="7.05839">
        <ele>1078.91</ele>
        <time>2021-03-08T12:49:30.000Z</time>
      </trkpt>
      <trkpt lat="48.08215" lon="7.05837">
        <ele>1077.91</ele>
        <time>2021-03-08T12:49:42.000Z</time>
      </trkpt>
      <trkpt lat="48.08224" lon="7.05834">
        <ele>1075.97</ele>
        <time>2021-03-08T12:49:55.000Z</time>
      </trkpt>
      <trkpt lat="48.08234" lon="7.05833">
        <ele>1071.98</ele>
        <time>2021-03-08T12:50:12.000Z</time>
      </trkpt>
      <trkpt lat="48.08242" lon="7.05826">
        <ele>1069.97</ele>
        <time>2021-03-08T12:50:22.000Z</time>
      </trkpt>
      <trkpt lat="48.08252" lon="7.05823">
        <ele>1068.72</ele>
        <time>2021-03-08T12:50:30.000Z</time>
      </trkpt>
      <trkpt lat="48.08262" lon="7.05822">
        <ele>1068.17</ele>
        <time>2021-03-08T12:50:38.000Z</time>
      </trkpt>
      <trkpt lat="48.08271" lon="7.05822">
        <ele>1066.96</ele>
        <time>2021-03-08T12:51:03.000Z</time>
      </trkpt>
      <trkpt lat="48.0828" lon="7.05822">
        <ele>1067.91</ele>
        <time>2021-03-08T12:51:11.000Z</time>
      </trkpt>
      <trkpt lat="48.0829" lon="7.05821">
        <ele>1068.91</ele>
        <time>2021-03-08T12:51:20.000Z</time>
      </trkpt>
      <trkpt lat="48.083" lon="7.0582">
        <ele>1069.16</ele>
        <time>2021-03-08T12:51:30.000Z</time>
      </trkpt>
      <trkpt lat="48.08309" lon="7.05816">
        <ele>1066.66</ele>
        <time>2021-03-08T12:51:50.000Z</time>
      </trkpt>
      <trkpt lat="48.08318" lon="7.05823">
        <ele>1065.91</ele>
        <time>2021-03-08T12:52:04.000Z</time>
      </trkpt>
      <trkpt lat="48.08328" lon="7.05827">
        <ele>1065.16</ele>
        <time>2021-03-08T12:52:12.000Z</time>
      </trkpt>
      <trkpt lat="48.08337" lon="7.0583">
        <ele>1063.97</ele>
        <time>2021-03-08T12:52:19.000Z</time>
      </trkpt>
      <trkpt lat="48.08344" lon="7.0584">
        <ele>1062.91</ele>
        <time>2021-03-08T12:52:29.000Z</time>
      </trkpt>
      <trkpt lat="48.08352" lon="7.05848">
        <ele>1062.66</ele>
        <time>2021-03-08T12:52:36.000Z</time>
      </trkpt>
      <trkpt lat="48.0836" lon="7.05854">
        <ele>1060.97</ele>
        <time>2021-03-08T12:52:44.000Z</time>
      </trkpt>
      <trkpt lat="48.08368" lon="7.05861">
        <ele>1060.91</ele>
        <time>2021-03-08T12:52:52.000Z</time>
      </trkpt>
      <trkpt lat="48.08374" lon="7.05871">
        <ele>1059.16</ele>
        <time>2021-03-08T12:52:59.000Z</time>
      </trkpt>
      <trkpt lat="48.08378" lon="7.05885">
        <ele>1057.91</ele>
        <time>2021-03-08T12:53:07.000Z</time>
      </trkpt>
      <trkpt lat="48.08378" lon="7.05899">
        <ele>1055.97</ele>
        <time>2021-03-08T12:53:15.000Z</time>
      </trkpt>
      <trkpt lat="48.08377" lon="7.05914">
        <ele>1054.91</ele>
        <time>2021-03-08T12:53:22.000Z</time>
      </trkpt>
      <trkpt lat="48.08376" lon="7.05927">
        <ele>1052.91</ele>
        <time>2021-03-08T12:53:29.000Z</time>
      </trkpt>
      <trkpt lat="48.08375" lon="7.05942">
        <ele>1052.16</ele>
        <time>2021-03-08T12:53:38.000Z</time>
      </trkpt>
      <trkpt lat="48.08372" lon="7.05957">
        <ele>1049.91</ele>
        <time>2021-03-08T12:53:46.000Z</time>
      </trkpt>
      <trkpt lat="48.08374" lon="7.05971">
        <ele>1051.85</ele>
        <time>2021-03-08T12:53:54.000Z</time>
      </trkpt>
      <trkpt lat="48.08379" lon="7.05983">
        <ele>1050.91</ele>
        <time>2021-03-08T12:54:03.000Z</time>
      </trkpt>
      <trkpt lat="48.08387" lon="7.05991">
        <ele>1051.9</ele>
        <time>2021-03-08T12:54:11.000Z</time>
      </trkpt>
      <trkpt lat="48.08394" lon="7.05999">
        <ele>1052.91</ele>
        <time>2021-03-08T12:54:22.000Z</time>
      </trkpt>
      <trkpt lat="48.08403" lon="7.06003">
        <ele>1052.16</ele>
        <time>2021-03-08T12:54:32.000Z</time>
      </trkpt>
      <trkpt lat="48.08413" lon="7.06007">
        <ele>1049.85</ele>
        <time>2021-03-08T12:55:17.000Z</time>
      </trkpt>
      <trkpt lat="48.08422" lon="7.06014">
        <ele>1051.85</ele>
        <time>2021-03-08T12:55:27.000Z</time>
      </trkpt>
      <trkpt lat="48.0843" lon="7.06019">
        <ele>1053.91</ele>
        <time>2021-03-08T12:55:41.000Z</time>
      </trkpt>
      <trkpt lat="48.0844" lon="7.06019">
        <ele>1056.91</ele>
        <time>2021-03-08T12:55:54.000Z</time>
      </trkpt>
      <trkpt lat="48.08449" lon="7.06015">
        <ele>1055.91</ele>
        <time>2021-03-08T12:56:06.000Z</time>
      </trkpt>
      <trkpt lat="48.08458" lon="7.06014">
        <ele>1053.73</ele>
        <time>2021-03-08T12:56:23.000Z</time>
      </trkpt>
      <trkpt lat="48.08469" lon="7.06009">
        <ele>1052.91</ele>
        <time>2021-03-08T12:56:30.000Z</time>
      </trkpt>
      <trkpt lat="48.08478" lon="7.06007">
        <ele>1051.92</ele>
        <time>2021-03-08T12:56:35.000Z</time>
      </trkpt>
      <trkpt lat="48.08486" lon="7.06002">
        <ele>1052.66</ele>
        <time>2021-03-08T12:56:57.000Z</time>
      </trkpt>
      <trkpt lat="48.08496" lon="7.06002">
        <ele>1053.66</ele>
        <time>2021-03-08T12:57:06.000Z</time>
      </trkpt>
      <trkpt lat="48.08508" lon="7.06007">
        <ele>1053.17</ele>
        <time>2021-03-08T12:57:15.000Z</time>
      </trkpt>
      <trkpt lat="48.08518" lon="7.0601">
        <ele>1051.91</ele>
        <time>2021-03-08T12:57:21.000Z</time>
      </trkpt>
      <trkpt lat="48.08525" lon="7.0602">
        <ele>1050.92</ele>
        <time>2021-03-08T12:57:27.000Z</time>
      </trkpt>
      <trkpt lat="48.08528" lon="7.06034">
        <ele>1048.17</ele>
        <time>2021-03-08T12:57:34.000Z</time>
      </trkpt>
      <trkpt lat="48.08529" lon="7.06047">
        <ele>1048.85</ele>
        <time>2021-03-08T12:57:40.000Z</time>
      </trkpt>
      <trkpt lat="48.08531" lon="7.06062">
        <ele>1049.16</ele>
        <time>2021-03-08T12:57:47.000Z</time>
      </trkpt>
      <trkpt lat="48.08533" lon="7.06076">
        <ele>1046.98</ele>
        <time>2021-03-08T12:57:55.000Z</time>
      </trkpt>
      <trkpt lat="48.08537" lon="7.06092">
        <ele>1045.92</ele>
        <time>2021-03-08T12:58:04.000Z</time>
      </trkpt>
      <trkpt lat="48.08541" lon="7.06105">
        <ele>1045.1</ele>
        <time>2021-03-08T12:58:13.000Z</time>
      </trkpt>
      <trkpt lat="48.08546" lon="7.06117">
        <ele>1043.91</ele>
        <time>2021-03-08T12:58:21.000Z</time>
      </trkpt>
      <trkpt lat="48.08552" lon="7.06129">
        <ele>1043.93</ele>
        <time>2021-03-08T12:58:28.000Z</time>
      </trkpt>
      <trkpt lat="48.08558" lon="7.06139">
        <ele>1042.96</ele>
        <time>2021-03-08T12:58:36.000Z</time>
      </trkpt>
      <trkpt lat="48.08564" lon="7.06151">
        <ele>1041.91</ele>
        <time>2021-03-08T12:58:45.000Z</time>
      </trkpt>
      <trkpt lat="48.0857" lon="7.06161">
        <ele>1042.66</ele>
        <time>2021-03-08T12:58:51.000Z</time>
      </trkpt>
      <trkpt lat="48.08576" lon="7.06174">
        <ele>1043.66</ele>
        <time>2021-03-08T12:58:58.000Z</time>
      </trkpt>
      <trkpt lat="48.0858" lon="7.06186">
        <ele>1044.9</ele>
        <time>2021-03-08T12:59:05.000Z</time>
      </trkpt>
      <trkpt lat="48.08585" lon="7.06198">
        <ele>1045.91</ele>
        <time>2021-03-08T12:59:12.000Z</time>
      </trkpt>
      <trkpt lat="48.08589" lon="7.0621">
        <ele>1046.92</ele>
        <time>2021-03-08T12:59:19.000Z</time>
      </trkpt>
      <trkpt lat="48.08593" lon="7.06222">
        <ele>1046.91</ele>
        <time>2021-03-08T12:59:26.000Z</time>
      </trkpt>
      <trkpt lat="48.086" lon="7.06212">
        <ele>1048.91</ele>
        <time>2021-03-08T12:59:55.000Z</time>
      </trkpt>
      <trkpt lat="48.08603" lon="7.06226">
        <ele>1045.41</ele>
        <time>2021-03-08T13:00:11.000Z</time>
      </trkpt>
      <trkpt lat="48.08603" lon="7.0624">
        <ele>1046.83</ele>
        <time>2021-03-08T13:00:18.000Z</time>
      </trkpt>
      <trkpt lat="48.08603" lon="7.06254">
        <ele>1048.91</ele>
        <time>2021-03-08T13:00:26.000Z</time>
      </trkpt>
      <trkpt lat="48.08606" lon="7.06268">
        <ele>1047.72</ele>
        <time>2021-03-08T13:00:36.000Z</time>
      </trkpt>
      <trkpt lat="48.08607" lon="7.06282">
        <ele>1047.93</ele>
        <time>2021-03-08T13:00:45.000Z</time>
      </trkpt>
      <trkpt lat="48.08612" lon="7.06295">
        <ele>1046.92</ele>
        <time>2021-03-08T13:00:55.000Z</time>
      </trkpt>
      <trkpt lat="48.0862" lon="7.06302">
        <ele>1044.92</ele>
        <time>2021-03-08T13:01:10.000Z</time>
      </trkpt>
      <trkpt lat="48.08629" lon="7.06299">
        <ele>1046.91</ele>
        <time>2021-03-08T13:01:32.000Z</time>
      </trkpt>
      <trkpt lat="48.08638" lon="7.063">
        <ele>1045.29</ele>
        <time>2021-03-08T13:01:41.000Z</time>
      </trkpt>
      <trkpt lat="48.08647" lon="7.06301">
        <ele>1042.98</ele>
        <time>2021-03-08T13:01:49.000Z</time>
      </trkpt>
      <trkpt lat="48.08657" lon="7.06305">
        <ele>1042.85</ele>
        <time>2021-03-08T13:01:59.000Z</time>
      </trkpt>
      <trkpt lat="48.08666" lon="7.06308">
        <ele>1042.97</ele>
        <time>2021-03-08T13:02:06.000Z</time>
      </trkpt>
      <trkpt lat="48.08676" lon="7.0631">
        <ele>1044.9</ele>
        <time>2021-03-08T13:02:13.000Z</time>
      </trkpt>
      <trkpt lat="48.08686" lon="7.06312">
        <ele>1046.9</ele>
        <time>2021-03-08T13:02:21.000Z</time>
      </trkpt>
      <trkpt lat="48.08693" lon="7.06322">
        <ele>1045.93</ele>
        <time>2021-03-08T13:02:30.000Z</time>
      </trkpt>
      <trkpt lat="48.08698" lon="7.06333">
        <ele>1045.92</ele>
        <time>2021-03-08T13:03:44.000Z</time>
      </trkpt>
      <trkpt lat="48.08705" lon="7.06342">
        <ele>1047.71</ele>
        <time>2021-03-08T13:04:29.000Z</time>
      </trkpt>
      <trkpt lat="48.08711" lon="7.06352">
        <ele>1047.16</ele>
        <time>2021-03-08T13:04:37.000Z</time>
      </trkpt>
      <trkpt lat="48.08715" lon="7.06365">
        <ele>1046.86</ele>
        <time>2021-03-08T13:04:46.000Z</time>
      </trkpt>
      <trkpt lat="48.08717" lon="7.0638">
        <ele>1044.91</ele>
        <time>2021-03-08T13:04:55.000Z</time>
      </trkpt>
      <trkpt lat="48.08718" lon="7.06393">
        <ele>1044.66</ele>
        <time>2021-03-08T13:05:05.000Z</time>
      </trkpt>
      <trkpt lat="48.08717" lon="7.06407">
        <ele>1048.85</ele>
        <time>2021-03-08T13:08:28.000Z</time>
      </trkpt>
      <trkpt lat="48.08718" lon="7.06422">
        <ele>1048.97</ele>
        <time>2021-03-08T13:11:49.000Z</time>
      </trkpt>
      <trkpt lat="48.08719" lon="7.06436">
        <ele>1046.93</ele>
        <time>2021-03-08T13:11:59.000Z</time>
      </trkpt>
      <trkpt lat="48.08721" lon="7.06449">
        <ele>1046.16</ele>
        <time>2021-03-08T13:12:08.000Z</time>
      </trkpt>
      <trkpt lat="48.08725" lon="7.06462">
        <ele>1043.98</ele>
        <time>2021-03-08T13:12:18.000Z</time>
      </trkpt>
      <trkpt lat="48.08728" lon="7.06475">
        <ele>1043.91</ele>
        <time>2021-03-08T13:12:27.000Z</time>
      </trkpt>
      <trkpt lat="48.08733" lon="7.06487">
        <ele>1043.16</ele>
        <time>2021-03-08T13:12:38.000Z</time>
      </trkpt>
      <trkpt lat="48.08738" lon="7.06499">
        <ele>1042.97</ele>
        <time>2021-03-08T13:12:48.000Z</time>
      </trkpt>
      <trkpt lat="48.08741" lon="7.06512">
        <ele>1041.91</ele>
        <time>2021-03-08T13:12:56.000Z</time>
      </trkpt>
      <trkpt lat="48.08746" lon="7.06524">
        <ele>1041.91</ele>
        <time>2021-03-08T13:13:03.000Z</time>
      </trkpt>
      <trkpt lat="48.08751" lon="7.06536">
        <ele>1041.91</ele>
        <time>2021-03-08T13:13:13.000Z</time>
      </trkpt>
      <trkpt lat="48.08756" lon="7.06548">
        <ele>1044.64</ele>
        <time>2021-03-08T13:13:22.000Z</time>
      </trkpt>
      <trkpt lat="48.08764" lon="7.06555">
        <ele>1050.68</ele>
        <time>2021-03-08T13:13:36.000Z</time>
      </trkpt>
      <trkpt lat="48.08769" lon="7.06567">
        <ele>1053.91</ele>
        <time>2021-03-08T13:16:07.000Z</time>
      </trkpt>
      <trkpt lat="48.08777" lon="7.06575">
        <ele>1052.16</ele>
        <time>2021-03-08T13:16:20.000Z</time>
      </trkpt>
      <trkpt lat="48.08784" lon="7.06585">
        <ele>1052.66</ele>
        <time>2021-03-08T13:16:31.000Z</time>
      </trkpt>
      <trkpt lat="48.08791" lon="7.06593">
        <ele>1053.9</ele>
        <time>2021-03-08T13:16:42.000Z</time>
      </trkpt>
      <trkpt lat="48.08798" lon="7.06602">
        <ele>1053.93</ele>
        <time>2021-03-08T13:16:52.000Z</time>
      </trkpt>
      <trkpt lat="48.08806" lon="7.06609">
        <ele>1053.66</ele>
        <time>2021-03-08T13:17:05.000Z</time>
      </trkpt>
      <trkpt lat="48.08812" lon="7.06622">
        <ele>1054.66</ele>
        <time>2021-03-08T13:17:20.000Z</time>
      </trkpt>
      <trkpt lat="48.08821" lon="7.06626">
        <ele>1053.91</ele>
        <time>2021-03-08T13:17:37.000Z</time>
      </trkpt>
      <trkpt lat="48.08829" lon="7.06631">
        <ele>1053.91</ele>
        <time>2021-03-08T13:17:45.000Z</time>
      </trkpt>
      <trkpt lat="48.08838" lon="7.06637">
        <ele>1052.91</ele>
        <time>2021-03-08T13:17:56.000Z</time>
      </trkpt>
      <trkpt lat="48.08848" lon="7.0664">
        <ele>1052.91</ele>
        <time>2021-03-08T13:18:05.000Z</time>
      </trkpt>
      <trkpt lat="48.08857" lon="7.06642">
        <ele>1054.91</ele>
        <time>2021-03-08T13:18:21.000Z</time>
      </trkpt>
      <trkpt lat="48.08866" lon="7.06643">
        <ele>1056.66</ele>
        <time>2021-03-08T13:18:37.000Z</time>
      </trkpt>
      <trkpt lat="48.08875" lon="7.06646">
        <ele>1057.9</ele>
        <time>2021-03-08T13:18:46.000Z</time>
      </trkpt>
      <trkpt lat="48.08886" lon="7.06648">
        <ele>1057.91</ele>
        <time>2021-03-08T13:19:01.000Z</time>
      </trkpt>
      <trkpt lat="48.08896" lon="7.0665">
        <ele>1059.91</ele>
        <time>2021-03-08T13:19:14.000Z</time>
      </trkpt>
      <trkpt lat="48.08905" lon="7.06653">
        <ele>1060.85</ele>
        <time>2021-03-08T13:19:26.000Z</time>
      </trkpt>
      <trkpt lat="48.08914" lon="7.06655">
        <ele>1062.9</ele>
        <time>2021-03-08T13:19:39.000Z</time>
      </trkpt>
      <trkpt lat="48.08923" lon="7.06657">
        <ele>1063.91</ele>
        <time>2021-03-08T13:19:48.000Z</time>
      </trkpt>
      <trkpt lat="48.08932" lon="7.06659">
        <ele>1066.85</ele>
        <time>2021-03-08T13:19:57.000Z</time>
      </trkpt>
      <trkpt lat="48.08942" lon="7.06659">
        <ele>1069.66</ele>
        <time>2021-03-08T13:20:12.000Z</time>
      </trkpt>
      <trkpt lat="48.08951" lon="7.06662">
        <ele>1070.66</ele>
        <time>2021-03-08T13:20:25.000Z</time>
      </trkpt>
      <trkpt lat="48.08961" lon="7.06663">
        <ele>1071.91</ele>
        <time>2021-03-08T13:20:40.000Z</time>
      </trkpt>
      <trkpt lat="48.0897" lon="7.0666">
        <ele>1070.92</ele>
        <time>2021-03-08T13:20:53.000Z</time>
      </trkpt>
      <trkpt lat="48.0898" lon="7.06656">
        <ele>1072.42</ele>
        <time>2021-03-08T13:21:08.000Z</time>
      </trkpt>
      <trkpt lat="48.08989" lon="7.06653">
        <ele>1073.71</ele>
        <time>2021-03-08T13:21:23.000Z</time>
      </trkpt>
      <trkpt lat="48.08999" lon="7.06652">
        <ele>1074.85</ele>
        <time>2021-03-08T13:21:36.000Z</time>
      </trkpt>
      <trkpt lat="48.09008" lon="7.06654">
        <ele>1074.91</ele>
        <time>2021-03-08T13:21:50.000Z</time>
      </trkpt>
      <trkpt lat="48.0902" lon="7.06655">
        <ele>1078.16</ele>
        <time>2021-03-08T13:22:17.000Z</time>
      </trkpt>
      <trkpt lat="48.09029" lon="7.06652">
        <ele>1079.91</ele>
        <time>2021-03-08T13:22:25.000Z</time>
      </trkpt>
      <trkpt lat="48.09038" lon="7.0665">
        <ele>1086.66</ele>
        <time>2021-03-08T13:22:37.000Z</time>
      </trkpt>
      <trkpt lat="48.09047" lon="7.06646">
        <ele>1088.91</ele>
        <time>2021-03-08T13:22:51.000Z</time>
      </trkpt>
      <trkpt lat="48.09057" lon="7.06645">
        <ele>1090.66</ele>
        <time>2021-03-08T13:23:05.000Z</time>
      </trkpt>
      <trkpt lat="48.09067" lon="7.06639">
        <ele>1090.92</ele>
        <time>2021-03-08T13:23:16.000Z</time>
      </trkpt>
      <trkpt lat="48.09076" lon="7.06635">
        <ele>1091.87</ele>
        <time>2021-03-08T13:23:25.000Z</time>
      </trkpt>
      <trkpt lat="48.09087" lon="7.06628">
        <ele>1091.92</ele>
        <time>2021-03-08T13:23:37.000Z</time>
      </trkpt>
      <trkpt lat="48.09095" lon="7.06624">
        <ele>1095.9</ele>
        <time>2021-03-08T13:23:49.000Z</time>
      </trkpt>
      <trkpt lat="48.09104" lon="7.06618">
        <ele>1096.92</ele>
        <time>2021-03-08T13:24:03.000Z</time>
      </trkpt>
      <trkpt lat="48.09113" lon="7.06615">
        <ele>1094.42</ele>
        <time>2021-03-08T13:24:26.000Z</time>
      </trkpt>
      <trkpt lat="48.09122" lon="7.06608">
        <ele>1092.92</ele>
        <time>2021-03-08T13:24:43.000Z</time>
      </trkpt>
      <trkpt lat="48.09131" lon="7.06606">
        <ele>1091.92</ele>
        <time>2021-03-08T13:25:02.000Z</time>
      </trkpt>
      <trkpt lat="48.0914" lon="7.06601">
        <ele>1090.92</ele>
        <time>2021-03-08T13:25:23.000Z</time>
      </trkpt>
      <trkpt lat="48.09149" lon="7.06598">
        <ele>1091.67</ele>
        <time>2021-03-08T13:25:40.000Z</time>
      </trkpt>
      <trkpt lat="48.09159" lon="7.06595">
        <ele>1093.9</ele>
        <time>2021-03-08T13:25:51.000Z</time>
      </trkpt>
      <trkpt lat="48.09167" lon="7.06592">
        <ele>1096.9</ele>
        <time>2021-03-08T13:26:11.000Z</time>
      </trkpt>
      <trkpt lat="48.09177" lon="7.0659">
        <ele>1099.92</ele>
        <time>2021-03-08T13:26:29.000Z</time>
      </trkpt>
      <trkpt lat="48.09188" lon="7.06586">
        <ele>1100.92</ele>
        <time>2021-03-08T13:26:41.000Z</time>
      </trkpt>
      <trkpt lat="48.09197" lon="7.06585">
        <ele>1101.91</ele>
        <time>2021-03-08T13:26:50.000Z</time>
      </trkpt>
      <trkpt lat="48.09207" lon="7.06583">
        <ele>1107.6</ele>
        <time>2021-03-08T13:27:04.000Z</time>
      </trkpt>
      <trkpt lat="48.09215" lon="7.06576">
        <ele>1109.67</ele>
        <time>2021-03-08T13:27:17.000Z</time>
      </trkpt>
      <trkpt lat="48.09224" lon="7.06572">
        <ele>1115.17</ele>
        <time>2021-03-08T13:27:29.000Z</time>
      </trkpt>
      <trkpt lat="48.09232" lon="7.06563">
        <ele>1117.66</ele>
        <time>2021-03-08T13:27:41.000Z</time>
      </trkpt>
      <trkpt lat="48.09239" lon="7.06551">
        <ele>1118.92</ele>
        <time>2021-03-08T13:27:53.000Z</time>
      </trkpt>
      <trkpt lat="48.09247" lon="7.06546">
        <ele>1120.84</ele>
        <time>2021-03-08T13:28:01.000Z</time>
      </trkpt>
      <trkpt lat="48.09257" lon="7.06542">
        <ele>1122.67</ele>
        <time>2021-03-08T13:28:08.000Z</time>
      </trkpt>
      <trkpt lat="48.09268" lon="7.0655">
        <ele>1127.42</ele>
        <time>2021-03-08T13:28:21.000Z</time>
      </trkpt>
      <trkpt lat="48.0927" lon="7.06563">
        <ele>1130.91</ele>
        <time>2021-03-08T13:28:32.000Z</time>
      </trkpt>
      <trkpt lat="48.09268" lon="7.06577">
        <ele>1131.98</ele>
        <time>2021-03-08T13:28:44.000Z</time>
      </trkpt>
      <trkpt lat="48.09263" lon="7.06588">
        <ele>1132.17</ele>
        <time>2021-03-08T13:28:56.000Z</time>
      </trkpt>
      <trkpt lat="48.09257" lon="7.066">
        <ele>1134.85</ele>
        <time>2021-03-08T13:29:09.000Z</time>
      </trkpt>
      <trkpt lat="48.09251" lon="7.06613">
        <ele>1134.17</ele>
        <time>2021-03-08T13:29:17.000Z</time>
      </trkpt>
      <trkpt lat="48.09244" lon="7.06622">
        <ele>1133.92</ele>
        <time>2021-03-08T13:29:26.000Z</time>
      </trkpt>
      <trkpt lat="48.09237" lon="7.06631">
        <ele>1134.92</ele>
        <time>2021-03-08T13:29:37.000Z</time>
      </trkpt>
      <trkpt lat="48.0923" lon="7.06641">
        <ele>1135.92</ele>
        <time>2021-03-08T13:29:47.000Z</time>
      </trkpt>
      <trkpt lat="48.09222" lon="7.06647">
        <ele>1136.67</ele>
        <time>2021-03-08T13:29:57.000Z</time>
      </trkpt>
      <trkpt lat="48.09214" lon="7.06656">
        <ele>1138.85</ele>
        <time>2021-03-08T13:30:06.000Z</time>
      </trkpt>
      <trkpt lat="48.09206" lon="7.06663">
        <ele>1141.65</ele>
        <time>2021-03-08T13:30:14.000Z</time>
      </trkpt>
      <trkpt lat="48.09197" lon="7.06668">
        <ele>1140.92</ele>
        <time>2021-03-08T13:30:23.000Z</time>
      </trkpt>
      <trkpt lat="48.09189" lon="7.06674">
        <ele>1138.99</ele>
        <time>2021-03-08T13:30:32.000Z</time>
      </trkpt>
      <trkpt lat="48.09183" lon="7.06686">
        <ele>1138.92</ele>
        <time>2021-03-08T13:30:41.000Z</time>
      </trkpt>
      <trkpt lat="48.0918" lon="7.06702">
        <ele>1135.92</ele>
        <time>2021-03-08T13:30:53.000Z</time>
      </trkpt>
      <trkpt lat="48.0918" lon="7.06715">
        <ele>1138.91</ele>
        <time>2021-03-08T13:31:03.000Z</time>
      </trkpt>
      <trkpt lat="48.09181" lon="7.06729">
        <ele>1139.9</ele>
        <time>2021-03-08T13:31:15.000Z</time>
      </trkpt>
      <trkpt lat="48.09183" lon="7.06743">
        <ele>1140.92</ele>
        <time>2021-03-08T13:31:26.000Z</time>
      </trkpt>
      <trkpt lat="48.09181" lon="7.06756">
        <ele>1141.91</ele>
        <time>2021-03-08T13:31:35.000Z</time>
      </trkpt>
      <trkpt lat="48.09179" lon="7.06769">
        <ele>1142.91</ele>
        <time>2021-03-08T13:31:44.000Z</time>
      </trkpt>
      <trkpt lat="48.09179" lon="7.06784">
        <ele>1144.17</ele>
        <time>2021-03-08T13:31:54.000Z</time>
      </trkpt>
      <trkpt lat="48.09179" lon="7.06798">
        <ele>1145.91</ele>
        <time>2021-03-08T13:32:02.000Z</time>
      </trkpt>
      <trkpt lat="48.09176" lon="7.06812">
        <ele>1148.16</ele>
        <time>2021-03-08T13:32:10.000Z</time>
      </trkpt>
      <trkpt lat="48.0917" lon="7.06824">
        <ele>1148.67</ele>
        <time>2021-03-08T13:32:19.000Z</time>
      </trkpt>
      <trkpt lat="48.09165" lon="7.06837">
        <ele>1148.92</ele>
        <time>2021-03-08T13:32:27.000Z</time>
      </trkpt>
      <trkpt lat="48.09163" lon="7.0685">
        <ele>1150.9</ele>
        <time>2021-03-08T13:32:35.000Z</time>
      </trkpt>
      <trkpt lat="48.09165" lon="7.06865">
        <ele>1152.67</ele>
        <time>2021-03-08T13:32:48.000Z</time>
      </trkpt>
      <trkpt lat="48.09166" lon="7.0688">
        <ele>1156.91</ele>
        <time>2021-03-08T13:34:21.000Z</time>
      </trkpt>
      <trkpt lat="48.09166" lon="7.06866">
        <ele>1156.42</ele>
        <time>2021-03-08T13:37:34.000Z</time>
      </trkpt>
      <trkpt lat="48.09162" lon="7.06854">
        <ele>1159.19</ele>
        <time>2021-03-08T13:46:11.000Z</time>
      </trkpt>
      <trkpt lat="48.09168" lon="7.06843">
        <ele>1155.93</ele>
        <time>2021-03-08T13:46:20.000Z</time>
      </trkpt>
      <trkpt lat="48.09172" lon="7.06831">
        <ele>1155.67</ele>
        <time>2021-03-08T13:46:30.000Z</time>
      </trkpt>
      <trkpt lat="48.09178" lon="7.06821">
        <ele>1153.91</ele>
        <time>2021-03-08T13:46:40.000Z</time>
      </trkpt>
      <trkpt lat="48.09182" lon="7.06807">
        <ele>1152.18</ele>
        <time>2021-03-08T13:46:49.000Z</time>
      </trkpt>
      <trkpt lat="48.09185" lon="7.06795">
        <ele>1153.86</ele>
        <time>2021-03-08T13:46:58.000Z</time>
      </trkpt>
      <trkpt lat="48.0919" lon="7.06782">
        <ele>1154.67</ele>
        <time>2021-03-08T13:47:08.000Z</time>
      </trkpt>
      <trkpt lat="48.09194" lon="7.06768">
        <ele>1153.92</ele>
        <time>2021-03-08T13:47:18.000Z</time>
      </trkpt>
      <trkpt lat="48.09199" lon="7.06755">
        <ele>1152.17</ele>
        <time>2021-03-08T13:47:28.000Z</time>
      </trkpt>
      <trkpt lat="48.09204" lon="7.06743">
        <ele>1153.92</ele>
        <time>2021-03-08T13:47:39.000Z</time>
      </trkpt>
      <trkpt lat="48.09209" lon="7.06732">
        <ele>1153.92</ele>
        <time>2021-03-08T13:47:48.000Z</time>
      </trkpt>
      <trkpt lat="48.09213" lon="7.06718">
        <ele>1153.92</ele>
        <time>2021-03-08T13:47:58.000Z</time>
      </trkpt>
      <trkpt lat="48.0922" lon="7.06708">
        <ele>1155.85</ele>
        <time>2021-03-08T13:48:07.000Z</time>
      </trkpt>
      <trkpt lat="48.09227" lon="7.06699">
        <ele>1156.92</ele>
        <time>2021-03-08T13:48:17.000Z</time>
      </trkpt>
      <trkpt lat="48.09235" lon="7.06691">
        <ele>1159.96</ele>
        <time>2021-03-08T13:48:29.000Z</time>
      </trkpt>
      <trkpt lat="48.09244" lon="7.06686">
        <ele>1161.85</ele>
        <time>2021-03-08T13:48:39.000Z</time>
      </trkpt>
      <trkpt lat="48.09253" lon="7.06681">
        <ele>1160.92</ele>
        <time>2021-03-08T13:48:47.000Z</time>
      </trkpt>
      <trkpt lat="48.09261" lon="7.06674">
        <ele>1163.91</ele>
        <time>2021-03-08T13:48:59.000Z</time>
      </trkpt>
      <trkpt lat="48.09269" lon="7.06665">
        <ele>1165.92</ele>
        <time>2021-03-08T13:49:10.000Z</time>
      </trkpt>
      <trkpt lat="48.09276" lon="7.06657">
        <ele>1166.67</ele>
        <time>2021-03-08T13:49:20.000Z</time>
      </trkpt>
      <trkpt lat="48.09284" lon="7.06649">
        <ele>1168.85</ele>
        <time>2021-03-08T13:49:29.000Z</time>
      </trkpt>
      <trkpt lat="48.09293" lon="7.0664">
        <ele>1166.17</ele>
        <time>2021-03-08T13:49:38.000Z</time>
      </trkpt>
      <trkpt lat="48.09301" lon="7.06633">
        <ele>1167.86</ele>
        <time>2021-03-08T13:49:46.000Z</time>
      </trkpt>
      <trkpt lat="48.09307" lon="7.06622">
        <ele>1169.9</ele>
        <time>2021-03-08T13:49:56.000Z</time>
      </trkpt>
      <trkpt lat="48.09315" lon="7.06614">
        <ele>1171.17</ele>
        <time>2021-03-08T13:50:06.000Z</time>
      </trkpt>
      <trkpt lat="48.09322" lon="7.06605">
        <ele>1168.94</ele>
        <time>2021-03-08T13:50:15.000Z</time>
      </trkpt>
      <trkpt lat="48.09329" lon="7.06597">
        <ele>1167.92</ele>
        <time>2021-03-08T13:50:24.000Z</time>
      </trkpt>
      <trkpt lat="48.09336" lon="7.06586">
        <ele>1168.67</ele>
        <time>2021-03-08T13:50:34.000Z</time>
      </trkpt>
      <trkpt lat="48.09341" lon="7.06574">
        <ele>1170.85</ele>
        <time>2021-03-08T13:50:42.000Z</time>
      </trkpt>
      <trkpt lat="48.09348" lon="7.06561">
        <ele>1173.67</ele>
        <time>2021-03-08T13:50:54.000Z</time>
      </trkpt>
      <trkpt lat="48.09351" lon="7.06546">
        <ele>1174.92</ele>
        <time>2021-03-08T13:51:05.000Z</time>
      </trkpt>
      <trkpt lat="48.09358" lon="7.06536">
        <ele>1173.92</ele>
        <time>2021-03-08T13:51:15.000Z</time>
      </trkpt>
      <trkpt lat="48.09364" lon="7.06522">
        <ele>1171.92</ele>
        <time>2021-03-08T13:51:26.000Z</time>
      </trkpt>
      <trkpt lat="48.09368" lon="7.0651">
        <ele>1173.85</ele>
        <time>2021-03-08T13:51:34.000Z</time>
      </trkpt>
      <trkpt lat="48.09372" lon="7.06497">
        <ele>1176.66</ele>
        <time>2021-03-08T13:51:44.000Z</time>
      </trkpt>
      <trkpt lat="48.09376" lon="7.06482">
        <ele>1176.91</ele>
        <time>2021-03-08T13:51:56.000Z</time>
      </trkpt>
      <trkpt lat="48.09382" lon="7.06469">
        <ele>1174.92</ele>
        <time>2021-03-08T13:52:08.000Z</time>
      </trkpt>
      <trkpt lat="48.09386" lon="7.06456">
        <ele>1172.92</ele>
        <time>2021-03-08T13:52:18.000Z</time>
      </trkpt>
      <trkpt lat="48.0939" lon="7.06444">
        <ele>1171.67</ele>
        <time>2021-03-08T13:52:28.000Z</time>
      </trkpt>
      <trkpt lat="48.09395" lon="7.06431">
        <ele>1172.86</ele>
        <time>2021-03-08T13:52:37.000Z</time>
      </trkpt>
      <trkpt lat="48.09401" lon="7.06421">
        <ele>1173.92</ele>
        <time>2021-03-08T13:52:46.000Z</time>
      </trkpt>
      <trkpt lat="48.09405" lon="7.06407">
        <ele>1174.92</ele>
        <time>2021-03-08T13:52:57.000Z</time>
      </trkpt>
      <trkpt lat="48.09408" lon="7.06395">
        <ele>1176.92</ele>
        <time>2021-03-08T13:53:06.000Z</time>
      </trkpt>
      <trkpt lat="48.09405" lon="7.06381">
        <ele>1176.92</ele>
        <time>2021-03-08T13:53:17.000Z</time>
      </trkpt>
      <trkpt lat="48.094" lon="7.06369">
        <ele>1177.9</ele>
        <time>2021-03-08T13:53:24.000Z</time>
      </trkpt>
      <trkpt lat="48.09396" lon="7.06356">
        <ele>1178.92</ele>
        <time>2021-03-08T13:53:34.000Z</time>
      </trkpt>
      <trkpt lat="48.0939" lon="7.06345">
        <ele>1180.85</ele>
        <time>2021-03-08T13:53:42.000Z</time>
      </trkpt>
      <trkpt lat="48.09385" lon="7.06333">
        <ele>1181.9</ele>
        <time>2021-03-08T13:53:51.000Z</time>
      </trkpt>
      <trkpt lat="48.0938" lon="7.0632">
        <ele>1185.61</ele>
        <time>2021-03-08T13:54:00.000Z</time>
      </trkpt>
      <trkpt lat="48.09372" lon="7.0631">
        <ele>1189.67</ele>
        <time>2021-03-08T13:54:09.000Z</time>
      </trkpt>
      <trkpt lat="48.09363" lon="7.063">
        <ele>1191.92</ele>
        <time>2021-03-08T13:54:21.000Z</time>
      </trkpt>
      <trkpt lat="48.09355" lon="7.06292">
        <ele>1194.9</ele>
        <time>2021-03-08T13:54:31.000Z</time>
      </trkpt>
      <trkpt lat="48.09348" lon="7.06283">
        <ele>1196.91</ele>
        <time>2021-03-08T13:54:40.000Z</time>
      </trkpt>
      <trkpt lat="48.09339" lon="7.06277">
        <ele>1198.87</ele>
        <time>2021-03-08T13:54:48.000Z</time>
      </trkpt>
      <trkpt lat="48.0933" lon="7.06275">
        <ele>1200.91</ele>
        <time>2021-03-08T13:54:59.000Z</time>
      </trkpt>
      <trkpt lat="48.0932" lon="7.06272">
        <ele>1202.92</ele>
        <time>2021-03-08T13:55:12.000Z</time>
      </trkpt>
      <trkpt lat="48.0931" lon="7.06269">
        <ele>1203.67</ele>
        <time>2021-03-08T13:55:23.000Z</time>
      </trkpt>
      <trkpt lat="48.09301" lon="7.06264">
        <ele>1204.85</ele>
        <time>2021-03-08T13:55:32.000Z</time>
      </trkpt>
      <trkpt lat="48.09291" lon="7.06262">
        <ele>1205.92</ele>
        <time>2021-03-08T13:55:43.000Z</time>
      </trkpt>
      <trkpt lat="48.09282" lon="7.06259">
        <ele>1206.92</ele>
        <time>2021-03-08T13:55:55.000Z</time>
      </trkpt>
      <trkpt lat="48.09273" lon="7.06254">
        <ele>1206.73</ele>
        <time>2021-03-08T13:56:04.000Z</time>
      </trkpt>
      <trkpt lat="48.09265" lon="7.06249">
        <ele>1206.92</ele>
        <time>2021-03-08T13:56:14.000Z</time>
      </trkpt>
      <trkpt lat="48.09259" lon="7.06239">
        <ele>1207.92</ele>
        <time>2021-03-08T13:56:25.000Z</time>
      </trkpt>
      <trkpt lat="48.09251" lon="7.06228">
        <ele>1205.92</ele>
        <time>2021-03-08T13:56:37.000Z</time>
      </trkpt>
      <trkpt lat="48.09249" lon="7.06214">
        <ele>1202.1</ele>
        <time>2021-03-08T13:56:54.000Z</time>
      </trkpt>
      <trkpt lat="48.09247" lon="7.062">
        <ele>1197.98</ele>
        <time>2021-03-08T13:57:06.000Z</time>
      </trkpt>
      <trkpt lat="48.09247" lon="7.06186">
        <ele>1196.92</ele>
        <time>2021-03-08T13:57:17.000Z</time>
      </trkpt>
      <trkpt lat="48.0925" lon="7.06172">
        <ele>1195.68</ele>
        <time>2021-03-08T13:57:26.000Z</time>
      </trkpt>
      <trkpt lat="48.09253" lon="7.06159">
        <ele>1195.92</ele>
        <time>2021-03-08T13:57:38.000Z</time>
      </trkpt>
      <trkpt lat="48.09257" lon="7.06147">
        <ele>1198.79</ele>
        <time>2021-03-08T13:57:48.000Z</time>
      </trkpt>
      <trkpt lat="48.09263" lon="7.06132">
        <ele>1201.42</ele>
        <time>2021-03-08T13:58:00.000Z</time>
      </trkpt>
      <trkpt lat="48.09266" lon="7.06116">
        <ele>1208.66</ele>
        <time>2021-03-08T13:58:08.000Z</time>
      </trkpt>
      <trkpt lat="48.09269" lon="7.06103">
        <ele>1213.67</ele>
        <time>2021-03-08T13:58:17.000Z</time>
      </trkpt>
      <trkpt lat="48.09272" lon="7.06089">
        <ele>1218.91</ele>
        <time>2021-03-08T13:58:29.000Z</time>
      </trkpt>
      <trkpt lat="48.09266" lon="7.06079">
        <ele>1220.17</ele>
        <time>2021-03-08T13:58:42.000Z</time>
      </trkpt>
      <trkpt lat="48.09258" lon="7.06073">
        <ele>1221.92</ele>
        <time>2021-03-08T13:58:54.000Z</time>
      </trkpt>
      <trkpt lat="48.09251" lon="7.06064">
        <ele>1221.17</ele>
        <time>2021-03-08T13:59:06.000Z</time>
      </trkpt>
      <trkpt lat="48.0925" lon="7.0605">
        <ele>1222.92</ele>
        <time>2021-03-08T13:59:23.000Z</time>
      </trkpt>
      <trkpt lat="48.09248" lon="7.06037">
        <ele>1221.18</ele>
        <time>2021-03-08T13:59:36.000Z</time>
      </trkpt>
      <trkpt lat="48.09241" lon="7.06025">
        <ele>1220.92</ele>
        <time>2021-03-08T13:59:47.000Z</time>
      </trkpt>
      <trkpt lat="48.09232" lon="7.06021">
        <ele>1219.98</ele>
        <time>2021-03-08T13:59:56.000Z</time>
      </trkpt>
      <trkpt lat="48.09224" lon="7.06015">
        <ele>1219.92</ele>
        <time>2021-03-08T14:00:05.000Z</time>
      </trkpt>
      <trkpt lat="48.09216" lon="7.06006">
        <ele>1219.92</ele>
        <time>2021-03-08T14:00:17.000Z</time>
      </trkpt>
      <trkpt lat="48.09206" lon="7.06001">
        <ele>1218.92</ele>
        <time>2021-03-08T14:00:29.000Z</time>
      </trkpt>
      <trkpt lat="48.09197" lon="7.05994">
        <ele>1220.67</ele>
        <time>2021-03-08T14:00:41.000Z</time>
      </trkpt>
      <trkpt lat="48.09191" lon="7.0598">
        <ele>1218.92</ele>
        <time>2021-03-08T14:00:59.000Z</time>
      </trkpt>
      <trkpt lat="48.09183" lon="7.05974">
        <ele>1217.17</ele>
        <time>2021-03-08T14:01:07.000Z</time>
      </trkpt>
      <trkpt lat="48.09175" lon="7.05967">
        <ele>1213.98</ele>
        <time>2021-03-08T14:01:17.000Z</time>
      </trkpt>
      <trkpt lat="48.09167" lon="7.05957">
        <ele>1213.92</ele>
        <time>2021-03-08T14:01:28.000Z</time>
      </trkpt>
      <trkpt lat="48.09159" lon="7.05948">
        <ele>1212.93</ele>
        <time>2021-03-08T14:01:37.000Z</time>
      </trkpt>
      <trkpt lat="48.0915" lon="7.0594">
        <ele>1212.92</ele>
        <time>2021-03-08T14:01:46.000Z</time>
      </trkpt>
      <trkpt lat="48.0914" lon="7.05931">
        <ele>1211.92</ele>
        <time>2021-03-08T14:01:58.000Z</time>
      </trkpt>
      <trkpt lat="48.09132" lon="7.05925">
        <ele>1209.93</ele>
        <time>2021-03-08T14:02:06.000Z</time>
      </trkpt>
      <trkpt lat="48.09124" lon="7.05916">
        <ele>1208.98</ele>
        <time>2021-03-08T14:02:17.000Z</time>
      </trkpt>
      <trkpt lat="48.09115" lon="7.0591">
        <ele>1208.67</ele>
        <time>2021-03-08T14:02:26.000Z</time>
      </trkpt>
      <trkpt lat="48.09107" lon="7.05903">
        <ele>1209.92</ele>
        <time>2021-03-08T14:02:35.000Z</time>
      </trkpt>
      <trkpt lat="48.09098" lon="7.05893">
        <ele>1209.17</ele>
        <time>2021-03-08T14:02:44.000Z</time>
      </trkpt>
      <trkpt lat="48.09089" lon="7.05886">
        <ele>1209.87</ele>
        <time>2021-03-08T14:02:51.000Z</time>
      </trkpt>
      <trkpt lat="48.0908" lon="7.05876">
        <ele>1209.92</ele>
        <time>2021-03-08T14:03:03.000Z</time>
      </trkpt>
      <trkpt lat="48.09073" lon="7.05867">
        <ele>1205.18</ele>
        <time>2021-03-08T14:03:14.000Z</time>
      </trkpt>
      <trkpt lat="48.09064" lon="7.05861">
        <ele>1201.92</ele>
        <time>2021-03-08T14:03:23.000Z</time>
      </trkpt>
      <trkpt lat="48.09055" lon="7.05855">
        <ele>1203.9</ele>
        <time>2021-03-08T14:03:32.000Z</time>
      </trkpt>
      <trkpt lat="48.09047" lon="7.05847">
        <ele>1205.92</ele>
        <time>2021-03-08T14:03:43.000Z</time>
      </trkpt>
      <trkpt lat="48.09039" lon="7.05839">
        <ele>1205.92</ele>
        <time>2021-03-08T14:03:54.000Z</time>
      </trkpt>
      <trkpt lat="48.0903" lon="7.05833">
        <ele>1206.67</ele>
        <time>2021-03-08T14:04:04.000Z</time>
      </trkpt>
      <trkpt lat="48.09021" lon="7.05829">
        <ele>1208.67</ele>
        <time>2021-03-08T14:04:14.000Z</time>
      </trkpt>
      <trkpt lat="48.09013" lon="7.05822">
        <ele>1210.67</ele>
        <time>2021-03-08T14:04:27.000Z</time>
      </trkpt>
      <trkpt lat="48.09004" lon="7.05816">
        <ele>1214.65</ele>
        <time>2021-03-08T14:04:36.000Z</time>
      </trkpt>
      <trkpt lat="48.08994" lon="7.05812">
        <ele>1218.91</ele>
        <time>2021-03-08T14:04:48.000Z</time>
      </trkpt>
      <trkpt lat="48.08986" lon="7.05804">
        <ele>1220.67</ele>
        <time>2021-03-08T14:05:00.000Z</time>
      </trkpt>
      <trkpt lat="48.08977" lon="7.05798">
        <ele>1222.92</ele>
        <time>2021-03-08T14:05:19.000Z</time>
      </trkpt>
      <trkpt lat="48.08967" lon="7.05792">
        <ele>1223.92</ele>
        <time>2021-03-08T14:05:31.000Z</time>
      </trkpt>
      <trkpt lat="48.08958" lon="7.05788">
        <ele>1225.66</ele>
        <time>2021-03-08T14:05:44.000Z</time>
      </trkpt>
      <trkpt lat="48.0895" lon="7.05782">
        <ele>1225.93</ele>
        <time>2021-03-08T14:05:58.000Z</time>
      </trkpt>
      <trkpt lat="48.0894" lon="7.05779">
        <ele>1230.9</ele>
        <time>2021-03-08T14:06:11.000Z</time>
      </trkpt>
      <trkpt lat="48.08931" lon="7.05772">
        <ele>1232.67</ele>
        <time>2021-03-08T14:06:28.000Z</time>
      </trkpt>
      <trkpt lat="48.08922" lon="7.05768">
        <ele>1234.66</ele>
        <time>2021-03-08T14:06:41.000Z</time>
      </trkpt>
      <trkpt lat="48.08911" lon="7.05764">
        <ele>1235.91</ele>
        <time>2021-03-08T14:06:52.000Z</time>
      </trkpt>
      <trkpt lat="48.08902" lon="7.05758">
        <ele>1237.66</ele>
        <time>2021-03-08T14:07:04.000Z</time>
      </trkpt>
      <trkpt lat="48.08893" lon="7.0575">
        <ele>1236.91</ele>
        <time>2021-03-08T14:07:16.000Z</time>
      </trkpt>
      <trkpt lat="48.08883" lon="7.05743">
        <ele>1233.17</ele>
        <time>2021-03-08T14:07:28.000Z</time>
      </trkpt>
      <trkpt lat="48.08873" lon="7.05735">
        <ele>1231.91</ele>
        <time>2021-03-08T14:07:40.000Z</time>
      </trkpt>
      <trkpt lat="48.08865" lon="7.05728">
        <ele>1231.18</ele>
        <time>2021-03-08T14:07:49.000Z</time>
      </trkpt>
      <trkpt lat="48.08856" lon="7.05722">
        <ele>1229.98</ele>
        <time>2021-03-08T14:07:58.000Z</time>
      </trkpt>
      <trkpt lat="48.08849" lon="7.05714">
        <ele>1229.93</ele>
        <time>2021-03-08T14:08:07.000Z</time>
      </trkpt>
      <trkpt lat="48.08839" lon="7.05705">
        <ele>1227.17</ele>
        <time>2021-03-08T14:08:18.000Z</time>
      </trkpt>
      <trkpt lat="48.08829" lon="7.05698">
        <ele>1226.17</ele>
        <time>2021-03-08T14:08:30.000Z</time>
      </trkpt>
      <trkpt lat="48.0882" lon="7.05691">
        <ele>1222.98</ele>
        <time>2021-03-08T14:08:39.000Z</time>
      </trkpt>
      <trkpt lat="48.08811" lon="7.05687">
        <ele>1222.91</ele>
        <time>2021-03-08T14:08:48.000Z</time>
      </trkpt>
      <trkpt lat="48.08803" lon="7.05679">
        <ele>1221.98</ele>
        <time>2021-03-08T14:08:57.000Z</time>
      </trkpt>
      <trkpt lat="48.08796" lon="7.05671">
        <ele>1221.91</ele>
        <time>2021-03-08T14:09:08.000Z</time>
      </trkpt>
      <trkpt lat="48.08787" lon="7.05665">
        <ele>1220.91</ele>
        <time>2021-03-08T14:09:18.000Z</time>
      </trkpt>
      <trkpt lat="48.08779" lon="7.05659">
        <ele>1222.85</ele>
        <time>2021-03-08T14:09:27.000Z</time>
      </trkpt>
      <trkpt lat="48.08771" lon="7.05651">
        <ele>1223.91</ele>
        <time>2021-03-08T14:09:36.000Z</time>
      </trkpt>
      <trkpt lat="48.08763" lon="7.05642">
        <ele>1224.91</ele>
        <time>2021-03-08T14:09:48.000Z</time>
      </trkpt>
      <trkpt lat="48.08755" lon="7.05635">
        <ele>1223.91</ele>
        <time>2021-03-08T14:10:01.000Z</time>
      </trkpt>
      <trkpt lat="48.08747" lon="7.05628">
        <ele>1226.41</ele>
        <time>2021-03-08T14:10:09.000Z</time>
      </trkpt>
      <trkpt lat="48.08739" lon="7.05621">
        <ele>1228.16</ele>
        <time>2021-03-08T14:10:21.000Z</time>
      </trkpt>
      <trkpt lat="48.08733" lon="7.0561">
        <ele>1228.91</ele>
        <time>2021-03-08T14:10:38.000Z</time>
      </trkpt>
      <trkpt lat="48.08729" lon="7.05597">
        <ele>1227.16</ele>
        <time>2021-03-08T14:10:55.000Z</time>
      </trkpt>
      <trkpt lat="48.08726" lon="7.05584">
        <ele>1224.91</ele>
        <time>2021-03-08T14:11:05.000Z</time>
      </trkpt>
      <trkpt lat="48.08727" lon="7.0557">
        <ele>1223.91</ele>
        <time>2021-03-08T14:11:14.000Z</time>
      </trkpt>
      <trkpt lat="48.08731" lon="7.05556">
        <ele>1221.98</ele>
        <time>2021-03-08T14:11:26.000Z</time>
      </trkpt>
      <trkpt lat="48.08731" lon="7.05542">
        <ele>1220.91</ele>
        <time>2021-03-08T14:11:37.000Z</time>
      </trkpt>
      <trkpt lat="48.08734" lon="7.05529">
        <ele>1217.98</ele>
        <time>2021-03-08T14:11:49.000Z</time>
      </trkpt>
      <trkpt lat="48.08734" lon="7.05515">
        <ele>1214.18</ele>
        <time>2021-03-08T14:12:03.000Z</time>
      </trkpt>
      <trkpt lat="48.08733" lon="7.055">
        <ele>1213.67</ele>
        <time>2021-03-08T14:12:12.000Z</time>
      </trkpt>
      <trkpt lat="48.08735" lon="7.05486">
        <ele>1213.91</ele>
        <time>2021-03-08T14:12:23.000Z</time>
      </trkpt>
      <trkpt lat="48.08735" lon="7.05473">
        <ele>1214.66</ele>
        <time>2021-03-08T14:12:34.000Z</time>
      </trkpt>
      <trkpt lat="48.08735" lon="7.05458">
        <ele>1213.91</ele>
        <time>2021-03-08T14:12:44.000Z</time>
      </trkpt>
      <trkpt lat="48.08734" lon="7.05444">
        <ele>1214.91</ele>
        <time>2021-03-08T14:12:52.000Z</time>
      </trkpt>
      <trkpt lat="48.08728" lon="7.05431">
        <ele>1215.85</ele>
        <time>2021-03-08T14:13:00.000Z</time>
      </trkpt>
      <trkpt lat="48.08722" lon="7.05421">
        <ele>1216.85</ele>
        <time>2021-03-08T14:13:08.000Z</time>
      </trkpt>
      <trkpt lat="48.08716" lon="7.0541">
        <ele>1216.1</ele>
        <time>2021-03-08T14:13:16.000Z</time>
      </trkpt>
      <trkpt lat="48.08708" lon="7.05402">
        <ele>1213.24</ele>
        <time>2021-03-08T14:13:27.000Z</time>
      </trkpt>
      <trkpt lat="48.08701" lon="7.05393">
        <ele>1210.91</ele>
        <time>2021-03-08T14:13:38.000Z</time>
      </trkpt>
      <trkpt lat="48.08695" lon="7.05384">
        <ele>1209.98</ele>
        <time>2021-03-08T14:13:47.000Z</time>
      </trkpt>
      <trkpt lat="48.08689" lon="7.05372">
        <ele>1210.16</ele>
        <time>2021-03-08T14:13:59.000Z</time>
      </trkpt>
      <trkpt lat="48.08683" lon="7.0536">
        <ele>1208.9</ele>
        <time>2021-03-08T14:14:13.000Z</time>
      </trkpt>
      <trkpt lat="48.08677" lon="7.05349">
        <ele>1210.15</ele>
        <time>2021-03-08T14:14:26.000Z</time>
      </trkpt>
      <trkpt lat="48.08669" lon="7.05338">
        <ele>1213.16</ele>
        <time>2021-03-08T14:14:42.000Z</time>
      </trkpt>
      <trkpt lat="48.08661" lon="7.0533">
        <ele>1216.54</ele>
        <time>2021-03-08T14:14:53.000Z</time>
      </trkpt>
      <trkpt lat="48.08651" lon="7.05324">
        <ele>1222.66</ele>
        <time>2021-03-08T14:15:03.000Z</time>
      </trkpt>
      <trkpt lat="48.08642" lon="7.05317">
        <ele>1227.91</ele>
        <time>2021-03-08T14:15:15.000Z</time>
      </trkpt>
      <trkpt lat="48.08635" lon="7.05308">
        <ele>1229.85</ele>
        <time>2021-03-08T14:15:31.000Z</time>
      </trkpt>
      <trkpt lat="48.08626" lon="7.05301">
        <ele>1229.91</ele>
        <time>2021-03-08T14:15:46.000Z</time>
      </trkpt>
      <trkpt lat="48.08617" lon="7.05291">
        <ele>1230.16</ele>
        <time>2021-03-08T14:16:01.000Z</time>
      </trkpt>
      <trkpt lat="48.08609" lon="7.05283">
        <ele>1231.41</ele>
        <time>2021-03-08T14:16:15.000Z</time>
      </trkpt>
      <trkpt lat="48.08601" lon="7.05275">
        <ele>1236.66</ele>
        <time>2021-03-08T14:16:25.000Z</time>
      </trkpt>
      <trkpt lat="48.08594" lon="7.05267">
        <ele>1239.91</ele>
        <time>2021-03-08T14:16:36.000Z</time>
      </trkpt>
      <trkpt lat="48.08586" lon="7.05259">
        <ele>1243.6</ele>
        <time>2021-03-08T14:16:49.000Z</time>
      </trkpt>
      <trkpt lat="48.08578" lon="7.05252">
        <ele>1248.66</ele>
        <time>2021-03-08T14:17:06.000Z</time>
      </trkpt>
      <trkpt lat="48.08573" lon="7.0524">
        <ele>1249.9</ele>
        <time>2021-03-08T14:17:23.000Z</time>
      </trkpt>
      <trkpt lat="48.08565" lon="7.05234">
        <ele>1253.85</ele>
        <time>2021-03-08T14:17:42.000Z</time>
      </trkpt>
      <trkpt lat="48.08556" lon="7.05234">
        <ele>1253.91</ele>
        <time>2021-03-08T14:18:47.000Z</time>
      </trkpt>
      <trkpt lat="48.08546" lon="7.0523">
        <ele>1257.91</ele>
        <time>2021-03-08T14:20:39.000Z</time>
      </trkpt>
      <trkpt lat="48.08537" lon="7.0523">
        <ele>1259.96</ele>
        <time>2021-03-08T14:21:04.000Z</time>
      </trkpt>
      <trkpt lat="48.08528" lon="7.05227">
        <ele>1261.91</ele>
        <time>2021-03-08T14:21:20.000Z</time>
      </trkpt>
      <trkpt lat="48.08519" lon="7.05228">
        <ele>1264.91</ele>
        <time>2021-03-08T14:21:42.000Z</time>
      </trkpt>
      <trkpt lat="48.0851" lon="7.0523">
        <ele>1265.91</ele>
        <time>2021-03-08T14:21:57.000Z</time>
      </trkpt>
      <trkpt lat="48.08501" lon="7.05235">
        <ele>1268.65</ele>
        <time>2021-03-08T14:22:15.000Z</time>
      </trkpt>
      <trkpt lat="48.08492" lon="7.05235">
        <ele>1271.91</ele>
        <time>2021-03-08T14:22:34.000Z</time>
      </trkpt>
      <trkpt lat="48.08483" lon="7.05238">
        <ele>1275.91</ele>
        <time>2021-03-08T14:22:53.000Z</time>
      </trkpt>
      <trkpt lat="48.08474" lon="7.05241">
        <ele>1276.91</ele>
        <time>2021-03-08T14:23:06.000Z</time>
      </trkpt>
      <trkpt lat="48.08465" lon="7.05239">
        <ele>1279.9</ele>
        <time>2021-03-08T14:23:23.000Z</time>
      </trkpt>
      <trkpt lat="48.08457" lon="7.05231">
        <ele>1282.91</ele>
        <time>2021-03-08T14:23:39.000Z</time>
      </trkpt>
      <trkpt lat="48.08447" lon="7.0523">
        <ele>1282.91</ele>
        <time>2021-03-08T14:23:54.000Z</time>
      </trkpt>
      <trkpt lat="48.08437" lon="7.05227">
        <ele>1281.93</ele>
        <time>2021-03-08T14:24:03.000Z</time>
      </trkpt>
      <trkpt lat="48.08427" lon="7.05226">
        <ele>1279.93</ele>
        <time>2021-03-08T14:24:11.000Z</time>
      </trkpt>
      <trkpt lat="48.08419" lon="7.05221">
        <ele>1277.96</ele>
        <time>2021-03-08T14:24:20.000Z</time>
      </trkpt>
      <trkpt lat="48.0841" lon="7.0522">
        <ele>1278.66</ele>
        <time>2021-03-08T14:24:28.000Z</time>
      </trkpt>
      <trkpt lat="48.084" lon="7.05219">
        <ele>1278.16</ele>
        <time>2021-03-08T14:24:36.000Z</time>
      </trkpt>
      <trkpt lat="48.0839" lon="7.05216">
        <ele>1279.1</ele>
        <time>2021-03-08T14:24:45.000Z</time>
      </trkpt>
      <trkpt lat="48.08381" lon="7.05216">
        <ele>1279.85</ele>
        <time>2021-03-08T14:24:55.000Z</time>
      </trkpt>
      <trkpt lat="48.08372" lon="7.05215">
        <ele>1280.91</ele>
        <time>2021-03-08T14:25:08.000Z</time>
      </trkpt>
      <trkpt lat="48.08363" lon="7.05219">
        <ele>1281.9</ele>
        <time>2021-03-08T14:25:19.000Z</time>
      </trkpt>
      <trkpt lat="48.08354" lon="7.05214">
        <ele>1280.91</ele>
        <time>2021-03-08T14:25:46.000Z</time>
      </trkpt>
      <trkpt lat="48.08344" lon="7.05213">
        <ele>1280.91</ele>
        <time>2021-03-08T14:26:00.000Z</time>
      </trkpt>
      <trkpt lat="48.08335" lon="7.0521">
        <ele>1282.85</ele>
        <time>2021-03-08T14:26:20.000Z</time>
      </trkpt>
      <trkpt lat="48.08327" lon="7.05204">
        <ele>1280.93</ele>
        <time>2021-03-08T14:26:41.000Z</time>
      </trkpt>
      <trkpt lat="48.08318" lon="7.05203">
        <ele>1279.91</ele>
        <time>2021-03-08T14:26:58.000Z</time>
      </trkpt>
      <trkpt lat="48.0831" lon="7.05197">
        <ele>1276.93</ele>
        <time>2021-03-08T14:27:13.000Z</time>
      </trkpt>
      <trkpt lat="48.08301" lon="7.05192">
        <ele>1273.91</ele>
        <time>2021-03-08T14:27:30.000Z</time>
      </trkpt>
      <trkpt lat="48.08293" lon="7.05187">
        <ele>1270.97</ele>
        <time>2021-03-08T14:27:44.000Z</time>
      </trkpt>
      <trkpt lat="48.08285" lon="7.0518">
        <ele>1270.91</ele>
        <time>2021-03-08T14:28:02.000Z</time>
      </trkpt>
      <trkpt lat="48.08277" lon="7.05172">
        <ele>1267.91</ele>
        <time>2021-03-08T14:28:21.000Z</time>
      </trkpt>
      <trkpt lat="48.08268" lon="7.0517">
        <ele>1266.94</ele>
        <time>2021-03-08T14:28:56.000Z</time>
      </trkpt>
      <trkpt lat="48.08259" lon="7.05166">
        <ele>1265.91</ele>
        <time>2021-03-08T14:29:15.000Z</time>
      </trkpt>
      <trkpt lat="48.08252" lon="7.05155">
        <ele>1262.91</ele>
        <time>2021-03-08T14:29:31.000Z</time>
      </trkpt>
      <trkpt lat="48.08244" lon="7.05149">
        <ele>1260.93</ele>
        <time>2021-03-08T14:29:50.000Z</time>
      </trkpt>
      <trkpt lat="48.08237" lon="7.05141">
        <ele>1257.96</ele>
        <time>2021-03-08T14:30:07.000Z</time>
      </trkpt>
      <trkpt lat="48.08232" lon="7.05129">
        <ele>1256.92</ele>
        <time>2021-03-08T14:30:19.000Z</time>
      </trkpt>
      <trkpt lat="48.08226" lon="7.05117">
        <ele>1254.91</ele>
        <time>2021-03-08T14:30:30.000Z</time>
      </trkpt>
      <trkpt lat="48.08219" lon="7.05107">
        <ele>1253.93</ele>
        <time>2021-03-08T14:30:38.000Z</time>
      </trkpt>
      <trkpt lat="48.08213" lon="7.05095">
        <ele>1252.93</ele>
        <time>2021-03-08T14:30:46.000Z</time>
      </trkpt>
      <trkpt lat="48.08206" lon="7.05086">
        <ele>1252.66</ele>
        <time>2021-03-08T14:30:55.000Z</time>
      </trkpt>
      <trkpt lat="48.08199" lon="7.05075">
        <ele>1251.91</ele>
        <time>2021-03-08T14:31:03.000Z</time>
      </trkpt>
      <trkpt lat="48.08192" lon="7.05066">
        <ele>1250.93</ele>
        <time>2021-03-08T14:31:11.000Z</time>
      </trkpt>
      <trkpt lat="48.08185" lon="7.05055">
        <ele>1250.91</ele>
        <time>2021-03-08T14:31:19.000Z</time>
      </trkpt>
      <trkpt lat="48.08179" lon="7.05043">
        <ele>1250.91</ele>
        <time>2021-03-08T14:31:27.000Z</time>
      </trkpt>
      <trkpt lat="48.08172" lon="7.05033">
        <ele>1250.91</ele>
        <time>2021-03-08T14:31:35.000Z</time>
      </trkpt>
      <trkpt lat="48.08166" lon="7.05021">
        <ele>1250.91</ele>
        <time>2021-03-08T14:31:43.000Z</time>
      </trkpt>
      <trkpt lat="48.08161" lon="7.0501">
        <ele>1252.89</ele>
        <time>2021-03-08T14:31:53.000Z</time>
      </trkpt>
      <trkpt lat="48.08154" lon="7.05">
        <ele>1253.91</ele>
        <time>2021-03-08T14:32:09.000Z</time>
      </trkpt>
      <trkpt lat="48.08146" lon="7.04991">
        <ele>1252.16</ele>
        <time>2021-03-08T14:32:18.000Z</time>
      </trkpt>
      <trkpt lat="48.08139" lon="7.04983">
        <ele>1250.93</ele>
        <time>2021-03-08T14:32:29.000Z</time>
      </trkpt>
      <trkpt lat="48.08131" lon="7.04974">
        <ele>1252.91</ele>
        <time>2021-03-08T14:32:46.000Z</time>
      </trkpt>
      <trkpt lat="48.08125" lon="7.04964">
        <ele>1252.91</ele>
        <time>2021-03-08T14:32:57.000Z</time>
      </trkpt>
      <trkpt lat="48.08118" lon="7.04953">
        <ele>1252.91</ele>
        <time>2021-03-08T14:33:09.000Z</time>
      </trkpt>
      <trkpt lat="48.08113" lon="7.04941">
        <ele>1253.91</ele>
        <time>2021-03-08T14:33:23.000Z</time>
      </trkpt>
      <trkpt lat="48.08108" lon="7.0493">
        <ele>1254.66</ele>
        <time>2021-03-08T14:33:37.000Z</time>
      </trkpt>
      <trkpt lat="48.08101" lon="7.0492">
        <ele>1253.91</ele>
        <time>2021-03-08T14:33:49.000Z</time>
      </trkpt>
      <trkpt lat="48.08096" lon="7.04909">
        <ele>1253.91</ele>
        <time>2021-03-08T14:34:02.000Z</time>
      </trkpt>
      <trkpt lat="48.08089" lon="7.04898">
        <ele>1254.91</ele>
        <time>2021-03-08T14:34:13.000Z</time>
      </trkpt>
      <trkpt lat="48.08082" lon="7.04889">
        <ele>1256.89</ele>
        <time>2021-03-08T14:34:22.000Z</time>
      </trkpt>
      <trkpt lat="48.08077" lon="7.04877">
        <ele>1259.66</ele>
        <time>2021-03-08T14:34:34.000Z</time>
      </trkpt>
      <trkpt lat="48.08072" lon="7.04865">
        <ele>1260.91</ele>
        <time>2021-03-08T14:34:54.000Z</time>
      </trkpt>
      <trkpt lat="48.08067" lon="7.04853">
        <ele>1260.91</ele>
        <time>2021-03-08T14:35:03.000Z</time>
        <extensions>
          <visugpx:TrkExtension xmlns:visugpx="https://www.visugpx.com/editgpx/">
            <visugpx:node>1</visugpx:node>
            </visugpx:TrkExtension>
        </extensions>
      </trkpt>
      <trkpt lat="48.0807" lon="7.0485">
        <ele>1269.1</ele>
      </trkpt>
      <trkpt lat="48.08065" lon="7.04839">
        <ele>1269.5</ele>
      </trkpt>
      <trkpt lat="48.08039" lon="7.04799">
        <ele>1271.2</ele>
      </trkpt>
      <trkpt lat="48.08018" lon="7.04759">
        <ele>1273.8</ele>
      </trkpt>
      <trkpt lat="48.07998" lon="7.04702">
        <ele>1277.5</ele>
      </trkpt>
      <trkpt lat="48.07982" lon="7.04651">
        <ele>1277.5</ele>
      </trkpt>
      <trkpt lat="48.07969" lon="7.04608">
        <ele>1275.6</ele>
      </trkpt>
      <trkpt lat="48.07965" lon="7.0459">
        <ele>1275</ele>
      </trkpt>
      <trkpt lat="48.07961" lon="7.04572">
        <ele>1274.3</ele>
      </trkpt>
      <trkpt lat="48.07963" lon="7.04558">
        <ele>1273.8</ele>
      </trkpt>
      <trkpt lat="48.07965" lon="7.04537">
        <ele>1273</ele>
      </trkpt>
      <trkpt lat="48.07959" lon="7.04512">
        <ele>1271.5</ele>
      </trkpt>
      <trkpt lat="48.07954" lon="7.0446">
        <ele>1268.9</ele>
      </trkpt>
      <trkpt lat="48.07948" lon="7.04389">
        <ele>1266.1</ele>
        <extensions>
          <visugpx:TrkExtension xmlns:visugpx="https://www.visugpx.com/editgpx/">
            <visugpx:node>2</visugpx:node>
            </visugpx:TrkExtension>
        </extensions>
      </trkpt>
      <trkpt lat="48.07945" lon="7.04355">
        <ele>1265.4</ele>
      </trkpt>
      <trkpt lat="48.07935" lon="7.04254">
        <ele>1261.8</ele>
      </trkpt>
      <trkpt lat="48.07926" lon="7.04172">
        <ele>1260.7</ele>
      </trkpt>
      <trkpt lat="48.07923" lon="7.04157">
        <ele>1260.6</ele>
      </trkpt>
      <trkpt lat="48.07922" lon="7.0415">
        <ele>1260.4</ele>
      </trkpt>
      <trkpt lat="48.07907" lon="7.04062">
        <ele>1254.8</ele>
      </trkpt>
      <trkpt lat="48.07901" lon="7.04022">
        <ele>1252.2</ele>
      </trkpt>
      <trkpt lat="48.07898" lon="7.03982">
        <ele>1251.4</ele>
      </trkpt>
      <trkpt lat="48.07893" lon="7.03946">
        <ele>1250.6</ele>
      </trkpt>
      <trkpt lat="48.07868" lon="7.03895">
        <ele>1246.6</ele>
      </trkpt>
      <trkpt lat="48.07845" lon="7.03836">
        <ele>1249.9</ele>
      </trkpt>
      <trkpt lat="48.07831" lon="7.03792">
        <ele>1251.3</ele>
      </trkpt>
      <trkpt lat="48.07823" lon="7.03767">
        <ele>1251.5</ele>
      </trkpt>
      <trkpt lat="48.07815" lon="7.03748">
        <ele>1252</ele>
      </trkpt>
      <trkpt lat="48.07783" lon="7.03711">
        <ele>1253.2</ele>
      </trkpt>
      <trkpt lat="48.07756" lon="7.03682">
        <ele>1259.4</ele>
      </trkpt>
      <trkpt lat="48.0774" lon="7.0367">
        <ele>1261.1</ele>
      </trkpt>
      <trkpt lat="48.07724" lon="7.03666">
        <ele>1259.4</ele>
      </trkpt>
      <trkpt lat="48.07706" lon="7.03664">
        <ele>1256.3</ele>
      </trkpt>
      <trkpt lat="48.07684" lon="7.03657">
        <ele>1253.6</ele>
      </trkpt>
      <trkpt lat="48.07672" lon="7.03649">
        <ele>1253.1</ele>
      </trkpt>
      <trkpt lat="48.07668" lon="7.03642">
        <ele>1253.8</ele>
      </trkpt>
      <trkpt lat="48.07665" lon="7.03638">
        <ele>1254.2</ele>
      </trkpt>
      <trkpt lat="48.07663" lon="7.0363">
        <ele>1255.6</ele>
      </trkpt>
      <trkpt lat="48.07664" lon="7.03622">
        <ele>1257.1</ele>
      </trkpt>
      <trkpt lat="48.07665" lon="7.03612">
        <ele>1259.2</ele>
      </trkpt>
      <trkpt lat="48.07663" lon="7.03603">
        <ele>1260.7</ele>
      </trkpt>
      <trkpt lat="48.07657" lon="7.03596">
        <ele>1261.5</ele>
      </trkpt>
      <trkpt lat="48.07655" lon="7.03592">
        <ele>1262.1</ele>
      </trkpt>
      <trkpt lat="48.07652" lon="7.03587">
        <ele>1262.9</ele>
      </trkpt>
      <trkpt lat="48.07644" lon="7.03577">
        <ele>1262.9</ele>
      </trkpt>
      <trkpt lat="48.07635" lon="7.03564">
        <ele>1262.2</ele>
      </trkpt>
      <trkpt lat="48.07633" lon="7.03562">
        <ele>1262.1</ele>
      </trkpt>
      <trkpt lat="48.07623" lon="7.0355">
        <ele>1261.7</ele>
      </trkpt>
      <trkpt lat="48.07608" lon="7.03532">
        <ele>1261.6</ele>
      </trkpt>
      <trkpt lat="48.07591" lon="7.03507">
        <ele>1262.6</ele>
      </trkpt>
      <trkpt lat="48.0758" lon="7.03491">
        <ele>1262.7</ele>
      </trkpt>
      <trkpt lat="48.07571" lon="7.03475">
        <ele>1262</ele>
      </trkpt>
      <trkpt lat="48.07562" lon="7.03458">
        <ele>1261.3</ele>
      </trkpt>
      <trkpt lat="48.07553" lon="7.03436">
        <ele>1260.4</ele>
      </trkpt>
      <trkpt lat="48.07542" lon="7.03415">
        <ele>1259.3</ele>
      </trkpt>
      <trkpt lat="48.07534" lon="7.03403">
        <ele>1257.9</ele>
      </trkpt>
      <trkpt lat="48.07534" lon="7.03402">
        <ele>1257.7</ele>
      </trkpt>
      <trkpt lat="48.07525" lon="7.03394">
        <ele>1256.7</ele>
      </trkpt>
      <trkpt lat="48.07518" lon="7.03389">
        <ele>1256</ele>
      </trkpt>
      <trkpt lat="48.07511" lon="7.03388">
        <ele>1255.7</ele>
      </trkpt>
      <trkpt lat="48.07502" lon="7.03384">
        <ele>1255.1</ele>
      </trkpt>
      <trkpt lat="48.07466" lon="7.03293">
        <ele>1240.8</ele>
      </trkpt>
      <trkpt lat="48.0744" lon="7.0324">
        <ele>1234.7</ele>
      </trkpt>
      <trkpt lat="48.07433" lon="7.03225">
        <ele>1233.7</ele>
      </trkpt>
      <trkpt lat="48.07426" lon="7.03217">
        <ele>1233.1</ele>
      </trkpt>
      <trkpt lat="48.07421" lon="7.0321">
        <ele>1232.7</ele>
      </trkpt>
      <trkpt lat="48.0741" lon="7.03194">
        <ele>1230.8</ele>
      </trkpt>
      <trkpt lat="48.07401" lon="7.03179">
        <ele>1229.4</ele>
      </trkpt>
      <trkpt lat="48.07396" lon="7.03172">
        <ele>1229</ele>
      </trkpt>
      <trkpt lat="48.07385" lon="7.03159">
        <ele>1228.8</ele>
      </trkpt>
      <trkpt lat="48.07372" lon="7.03146">
        <ele>1229</ele>
      </trkpt>
      <trkpt lat="48.07357" lon="7.03134">
        <ele>1229.7</ele>
      </trkpt>
      <trkpt lat="48.07341" lon="7.03119">
        <ele>1231.4</ele>
      </trkpt>
      <trkpt lat="48.07329" lon="7.03103">
        <ele>1233.8</ele>
      </trkpt>
      <trkpt lat="48.07322" lon="7.03093">
        <ele>1235.7</ele>
      </trkpt>
      <trkpt lat="48.07318" lon="7.03091">
        <ele>1236</ele>
      </trkpt>
      <trkpt lat="48.07313" lon="7.03091">
        <ele>1236.2</ele>
      </trkpt>
      <trkpt lat="48.07307" lon="7.03088">
        <ele>1236.8</ele>
      </trkpt>
      <trkpt lat="48.07303" lon="7.03084">
        <ele>1238</ele>
      </trkpt>
      <trkpt lat="48.07294" lon="7.03071">
        <ele>1239.2</ele>
      </trkpt>
      <trkpt lat="48.07278" lon="7.03053">
        <ele>1241.2</ele>
      </trkpt>
      <trkpt lat="48.07271" lon="7.03046">
        <ele>1242</ele>
      </trkpt>
      <trkpt lat="48.07264" lon="7.03041">
        <ele>1242.8</ele>
      </trkpt>
      <trkpt lat="48.07253" lon="7.03028">
        <ele>1244.5</ele>
      </trkpt>
      <trkpt lat="48.07241" lon="7.03014">
        <ele>1245.9</ele>
      </trkpt>
      <trkpt lat="48.07234" lon="7.03006">
        <ele>1246.8</ele>
      </trkpt>
      <trkpt lat="48.07225" lon="7.03">
        <ele>1247.6</ele>
      </trkpt>
      <trkpt lat="48.07215" lon="7.02997">
        <ele>1247.9</ele>
      </trkpt>
      <trkpt lat="48.07208" lon="7.02997">
        <ele>1248</ele>
      </trkpt>
      <trkpt lat="48.07203" lon="7.02995">
        <ele>1248.2</ele>
      </trkpt>
      <trkpt lat="48.07195" lon="7.02989">
        <ele>1248.5</ele>
      </trkpt>
      <trkpt lat="48.07175" lon="7.02975">
        <ele>1249.3</ele>
      </trkpt>
      <trkpt lat="48.07166" lon="7.02972">
        <ele>1249.6</ele>
      </trkpt>
      <trkpt lat="48.07155" lon="7.02971">
        <ele>1249.3</ele>
      </trkpt>
      <trkpt lat="48.07146" lon="7.02973">
        <ele>1248.9</ele>
      </trkpt>
      <trkpt lat="48.07136" lon="7.02974">
        <ele>1248.5</ele>
      </trkpt>
      <trkpt lat="48.07125" lon="7.02977">
        <ele>1247.9</ele>
      </trkpt>
      <trkpt lat="48.07116" lon="7.02982">
        <ele>1247.2</ele>
        <extensions>
          <visugpx:TrkExtension xmlns:visugpx="https://www.visugpx.com/editgpx/">
            <visugpx:node>3</visugpx:node>
            </visugpx:TrkExtension>
        </extensions>
      </trkpt>
      <trkpt lat="48.07111" lon="7.02981">
        <ele>1247.1</ele>
      </trkpt>
      <trkpt lat="48.07105" lon="7.02977">
        <ele>1247</ele>
      </trkpt>
      <trkpt lat="48.07098" lon="7.02974">
        <ele>1247.1</ele>
      </trkpt>
      <trkpt lat="48.07092" lon="7.02974">
        <ele>1246.8</ele>
      </trkpt>
      <trkpt lat="48.07086" lon="7.02977">
        <ele>1246.3</ele>
      </trkpt>
      <trkpt lat="48.07076" lon="7.02982">
        <ele>1246.3</ele>
      </trkpt>
      <trkpt lat="48.07071" lon="7.02984">
        <ele>1246.4</ele>
      </trkpt>
      <trkpt lat="48.07066" lon="7.02984">
        <ele>1246.7</ele>
      </trkpt>
      <trkpt lat="48.0706" lon="7.02984">
        <ele>1247.2</ele>
      </trkpt>
      <trkpt lat="48.07048" lon="7.02982">
        <ele>1248.1</ele>
      </trkpt>
      <trkpt lat="48.07041" lon="7.02979">
        <ele>1248.8</ele>
      </trkpt>
      <trkpt lat="48.07034" lon="7.02979">
        <ele>1249.2</ele>
      </trkpt>
      <trkpt lat="48.07028" lon="7.02981">
        <ele>1249.5</ele>
      </trkpt>
      <trkpt lat="48.07022" lon="7.02983">
        <ele>1249.8</ele>
      </trkpt>
      <trkpt lat="48.07015" lon="7.02983">
        <ele>1250.3</ele>
      </trkpt>
      <trkpt lat="48.07011" lon="7.02983">
        <ele>1250.5</ele>
      </trkpt>
      <trkpt lat="48.07008" lon="7.02988">
        <ele>1250.3</ele>
      </trkpt>
      <trkpt lat="48.07002" lon="7.02993">
        <ele>1250.4</ele>
      </trkpt>
      <trkpt lat="48.06993" lon="7.02995">
        <ele>1250.9</ele>
      </trkpt>
      <trkpt lat="48.06988" lon="7.02996">
        <ele>1251.2</ele>
      </trkpt>
      <trkpt lat="48.06986" lon="7.02994">
        <ele>1251.5</ele>
      </trkpt>
      <trkpt lat="48.0698" lon="7.02991">
        <ele>1252.2</ele>
      </trkpt>
      <trkpt lat="48.06972" lon="7.02983">
        <ele>1253.1</ele>
      </trkpt>
      <trkpt lat="48.06967" lon="7.02981">
        <ele>1253.5</ele>
      </trkpt>
      <trkpt lat="48.06959" lon="7.02981">
        <ele>1254</ele>
      </trkpt>
      <trkpt lat="48.06949" lon="7.02981">
        <ele>1254.7</ele>
      </trkpt>
      <trkpt lat="48.06944" lon="7.02981">
        <ele>1255</ele>
      </trkpt>
      <trkpt lat="48.06938" lon="7.0298">
        <ele>1255.4</ele>
      </trkpt>
      <trkpt lat="48.06934" lon="7.0298">
        <ele>1255.7</ele>
      </trkpt>
      <trkpt lat="48.06927" lon="7.02982">
        <ele>1256.1</ele>
      </trkpt>
      <trkpt lat="48.06924" lon="7.02982">
        <ele>1256.3</ele>
      </trkpt>
      <trkpt lat="48.06921" lon="7.02983">
        <ele>1256.5</ele>
      </trkpt>
      <trkpt lat="48.06915" lon="7.02983">
        <ele>1256.7</ele>
      </trkpt>
      <trkpt lat="48.06908" lon="7.02984">
        <ele>1256.3</ele>
      </trkpt>
      <trkpt lat="48.06903" lon="7.02983">
        <ele>1255.9</ele>
      </trkpt>
      <trkpt lat="48.06894" lon="7.02983">
        <ele>1255.4</ele>
      </trkpt>
      <trkpt lat="48.06883" lon="7.02983">
        <ele>1254.6</ele>
      </trkpt>
      <trkpt lat="48.0688" lon="7.02983">
        <ele>1254.4</ele>
      </trkpt>
      <trkpt lat="48.06874" lon="7.02982">
        <ele>1254</ele>
      </trkpt>
      <trkpt lat="48.06851" lon="7.02985">
        <ele>1252.5</ele>
      </trkpt>
      <trkpt lat="48.06838" lon="7.02985">
        <ele>1251.7</ele>
      </trkpt>
      <trkpt lat="48.06833" lon="7.02985">
        <ele>1251.3</ele>
      </trkpt>
      <trkpt lat="48.06832" lon="7.02985">
        <ele>1251.3</ele>
      </trkpt>
      <trkpt lat="48.06827" lon="7.02982">
        <ele>1251</ele>
      </trkpt>
      <trkpt lat="48.06819" lon="7.02978">
        <ele>1250.5</ele>
      </trkpt>
      <trkpt lat="48.06812" lon="7.02977">
        <ele>1250</ele>
      </trkpt>
      <trkpt lat="48.06808" lon="7.02979">
        <ele>1249.7</ele>
      </trkpt>
      <trkpt lat="48.06804" lon="7.02977">
        <ele>1249.4</ele>
      </trkpt>
      <trkpt lat="48.068" lon="7.02974">
        <ele>1249.2</ele>
      </trkpt>
      <trkpt lat="48.06793" lon="7.02971">
        <ele>1248.8</ele>
      </trkpt>
      <trkpt lat="48.06788" lon="7.02971">
        <ele>1248.4</ele>
      </trkpt>
      <trkpt lat="48.06785" lon="7.02973">
        <ele>1248.1</ele>
      </trkpt>
      <trkpt lat="48.06782" lon="7.02977">
        <ele>1247.9</ele>
      </trkpt>
      <trkpt lat="48.06776" lon="7.0298">
        <ele>1247.3</ele>
      </trkpt>
      <trkpt lat="48.06771" lon="7.0298">
        <ele>1247</ele>
      </trkpt>
      <trkpt lat="48.06763" lon="7.02981">
        <ele>1246.4</ele>
      </trkpt>
      <trkpt lat="48.06753" lon="7.02983">
        <ele>1245.6</ele>
      </trkpt>
      <trkpt lat="48.0675" lon="7.02986">
        <ele>1245.3</ele>
      </trkpt>
      <trkpt lat="48.06749" lon="7.02988">
        <ele>1245.4</ele>
      </trkpt>
      <trkpt lat="48.06747" lon="7.02991">
        <ele>1245.4</ele>
      </trkpt>
      <trkpt lat="48.06743" lon="7.0299">
        <ele>1245.6</ele>
      </trkpt>
      <trkpt lat="48.06739" lon="7.02988">
        <ele>1245.9</ele>
      </trkpt>
      <trkpt lat="48.06734" lon="7.02986">
        <ele>1246.2</ele>
      </trkpt>
      <trkpt lat="48.06729" lon="7.02986">
        <ele>1246.4</ele>
      </trkpt>
      <trkpt lat="48.06725" lon="7.02987">
        <ele>1246.6</ele>
      </trkpt>
      <trkpt lat="48.06718" lon="7.02991">
        <ele>1247</ele>
      </trkpt>
      <trkpt lat="48.0671" lon="7.02995">
        <ele>1247.4</ele>
      </trkpt>
      <trkpt lat="48.06704" lon="7.02997">
        <ele>1247.7</ele>
      </trkpt>
      <trkpt lat="48.06698" lon="7.02995">
        <ele>1248.1</ele>
      </trkpt>
      <trkpt lat="48.06694" lon="7.02995">
        <ele>1248.3</ele>
      </trkpt>
      <trkpt lat="48.06686" lon="7.02995">
        <ele>1248.8</ele>
      </trkpt>
      <trkpt lat="48.06682" lon="7.02995">
        <ele>1249</ele>
      </trkpt>
      <trkpt lat="48.06676" lon="7.02992">
        <ele>1249.3</ele>
      </trkpt>
      <trkpt lat="48.06672" lon="7.0299">
        <ele>1249.5</ele>
      </trkpt>
      <trkpt lat="48.06668" lon="7.02989">
        <ele>1249.7</ele>
      </trkpt>
      <trkpt lat="48.06664" lon="7.02991">
        <ele>1249.6</ele>
      </trkpt>
      <trkpt lat="48.0666" lon="7.02994">
        <ele>1249.5</ele>
      </trkpt>
      <trkpt lat="48.06655" lon="7.02995">
        <ele>1249.3</ele>
      </trkpt>
      <trkpt lat="48.06649" lon="7.02994">
        <ele>1249</ele>
      </trkpt>
      <trkpt lat="48.06642" lon="7.02994">
        <ele>1248.7</ele>
      </trkpt>
      <trkpt lat="48.06634" lon="7.02995">
        <ele>1248.3</ele>
      </trkpt>
      <trkpt lat="48.06628" lon="7.02997">
        <ele>1248.1</ele>
      </trkpt>
      <trkpt lat="48.06621" lon="7.02998">
        <ele>1247.8</ele>
      </trkpt>
      <trkpt lat="48.06615" lon="7.02997">
        <ele>1247.5</ele>
      </trkpt>
      <trkpt lat="48.06611" lon="7.02995">
        <ele>1247.2</ele>
      </trkpt>
      <trkpt lat="48.0661" lon="7.0299">
        <ele>1247.1</ele>
      </trkpt>
      <trkpt lat="48.06606" lon="7.02981">
        <ele>1246.8</ele>
      </trkpt>
      <trkpt lat="48.06603" lon="7.02969">
        <ele>1246.5</ele>
      </trkpt>
      <trkpt lat="48.06598" lon="7.02951">
        <ele>1246</ele>
      </trkpt>
      <trkpt lat="48.06595" lon="7.02942">
        <ele>1245.8</ele>
      </trkpt>
      <trkpt lat="48.06579" lon="7.02877">
        <ele>1237.7</ele>
      </trkpt>
      <trkpt lat="48.06538" lon="7.0271">
        <ele>1207.9</ele>
      </trkpt>
      <trkpt lat="48.06529" lon="7.02675">
        <ele>1203.8</ele>
      </trkpt>
      <trkpt lat="48.06523" lon="7.0265">
        <ele>1200.2</ele>
      </trkpt>
      <trkpt lat="48.06515" lon="7.0262">
        <ele>1194.9</ele>
      </trkpt>
      <trkpt lat="48.06507" lon="7.02595">
        <ele>1190.5</ele>
      </trkpt>
      <trkpt lat="48.06495" lon="7.0257">
        <ele>1184.2</ele>
      </trkpt>
      <trkpt lat="48.06484" lon="7.02546">
        <ele>1176.9</ele>
      </trkpt>
      <trkpt lat="48.06472" lon="7.02519">
        <ele>1170.5</ele>
      </trkpt>
      <trkpt lat="48.06457" lon="7.0249">
        <ele>1164.1</ele>
      </trkpt>
      <trkpt lat="48.06452" lon="7.02476">
        <ele>1161.9</ele>
      </trkpt>
      <trkpt lat="48.06445" lon="7.02467">
        <ele>1159.8</ele>
      </trkpt>
      <trkpt lat="48.06441" lon="7.02457">
        <ele>1158.6</ele>
      </trkpt>
      <trkpt lat="48.06435" lon="7.0244">
        <ele>1156.7</ele>
      </trkpt>
      <trkpt lat="48.06427" lon="7.02425">
        <ele>1154.9</ele>
      </trkpt>
      <trkpt lat="48.06424" lon="7.02419">
        <ele>1154.3</ele>
      </trkpt>
      <trkpt lat="48.06424" lon="7.02412">
        <ele>1153.8</ele>
      </trkpt>
      <trkpt lat="48.06423" lon="7.02403">
        <ele>1152.8</ele>
      </trkpt>
      <trkpt lat="48.0642" lon="7.02398">
        <ele>1152</ele>
      </trkpt>
      <trkpt lat="48.06416" lon="7.02394">
        <ele>1151.1</ele>
      </trkpt>
      <trkpt lat="48.0641" lon="7.02391">
        <ele>1150.5</ele>
      </trkpt>
      <trkpt lat="48.06405" lon="7.02389">
        <ele>1150</ele>
      </trkpt>
      <trkpt lat="48.06402" lon="7.02387">
        <ele>1149.7</ele>
      </trkpt>
      <trkpt lat="48.06403" lon="7.02384">
        <ele>1149.5</ele>
      </trkpt>
      <trkpt lat="48.06406" lon="7.02379">
        <ele>1149.4</ele>
      </trkpt>
      <trkpt lat="48.06407" lon="7.02376">
        <ele>1149.2</ele>
      </trkpt>
      <trkpt lat="48.06405" lon="7.02374">
        <ele>1149</ele>
      </trkpt>
      <trkpt lat="48.06398" lon="7.02374">
        <ele>1148.7</ele>
      </trkpt>
      <trkpt lat="48.06391" lon="7.02371">
        <ele>1148.4</ele>
      </trkpt>
      <trkpt lat="48.0639" lon="7.02369">
        <ele>1148.3</ele>
      </trkpt>
      <trkpt lat="48.06393" lon="7.02337">
        <ele>1146.7</ele>
      </trkpt>
      <trkpt lat="48.06381" lon="7.02334">
        <ele>1146.9</ele>
        <extensions>
          <visugpx:TrkExtension xmlns:visugpx="https://www.visugpx.com/editgpx/">
            <visugpx:node>4</visugpx:node>
            </visugpx:TrkExtension>
        </extensions>
      </trkpt>
      <trkpt lat="48.06393" lon="7.02337">
        <ele>1146.7</ele>
      </trkpt>
      <trkpt lat="48.06399" lon="7.02332">
        <ele>1146.3</ele>
      </trkpt>
      <trkpt lat="48.06403" lon="7.02324">
        <ele>1145.6</ele>
      </trkpt>
      <trkpt lat="48.06406" lon="7.02314">
        <ele>1144.7</ele>
      </trkpt>
      <trkpt lat="48.06408" lon="7.023">
        <ele>1143.5</ele>
      </trkpt>
      <trkpt lat="48.06408" lon="7.0229">
        <ele>1142.7</ele>
      </trkpt>
    </trkseg>
  </trk>
</gpx>